<?xml version="1.0" encoding="UTF-8" standalone="no" ?>
<gpx xmlns="http://www.topografix.com/GPX/1/1" xmlns:xsi="http://www.w3.org/2001/XMLSchema-instance" xsi:schemaLocation="http://www.topografix.com/GPX/1/1 http://www.topografix.com/GPX/1/1/gpx.xsd" version="1.1" creator="VisuGPX - https://www.visugpx.com">
  <metadata>
    <name>2018-04-12-46-St géry-Vers</name>
    <desc><![CDATA[Randonnée de 16,5km pour 400m de dénivelé positif. Au départ de St Géry cette boucle permet surplomber le Lot par ses deux rives en passant par de beaux sentiers boisés et de belles montées. paysages variés et belles vues sur la vallée]]></desc>
  </metadata>
  <trk>
    <name><![CDATA[ST GERY VERS :25:24]]></name>
    <trkseg>
      <trkpt lat="44.47802" lon="1.58158">
        <ele>130.88</ele>
        <time>2018-04-12T07:42:33Z</time>
      </trkpt>
      <trkpt lat="44.47819" lon="1.58151">
        <ele>130.4</ele>
        <time>2018-04-12T07:45:00Z</time>
      </trkpt>
      <trkpt lat="44.47832" lon="1.58132">
        <ele>130.4</ele>
        <time>2018-04-12T07:45:23Z</time>
      </trkpt>
      <trkpt lat="44.47837" lon="1.58104">
        <ele>133.28</ele>
        <time>2018-04-12T07:45:43Z</time>
      </trkpt>
      <trkpt lat="44.47845" lon="1.58076">
        <ele>133.76</ele>
        <time>2018-04-12T07:46:06Z</time>
      </trkpt>
      <trkpt lat="44.47841" lon="1.58047">
        <ele>133.76</ele>
        <time>2018-04-12T07:46:29Z</time>
      </trkpt>
      <trkpt lat="44.47852" lon="1.58025">
        <ele>133.28</ele>
        <time>2018-04-12T07:46:50Z</time>
      </trkpt>
      <trkpt lat="44.47869" lon="1.5803">
        <ele>133.76</ele>
        <time>2018-04-12T07:47:19Z</time>
      </trkpt>
      <trkpt lat="44.47888" lon="1.58044">
        <ele>135.2</ele>
        <time>2018-04-12T07:47:40Z</time>
      </trkpt>
      <trkpt lat="44.47894" lon="1.58072">
        <ele>137.61</ele>
        <time>2018-04-12T07:48:03Z</time>
      </trkpt>
      <trkpt lat="44.479" lon="1.58098">
        <ele>139.53</ele>
        <time>2018-04-12T07:48:27Z</time>
      </trkpt>
      <trkpt lat="44.47905" lon="1.58125">
        <ele>141.45</ele>
        <time>2018-04-12T07:48:50Z</time>
      </trkpt>
      <trkpt lat="44.47907" lon="1.58156">
        <ele>143.37</ele>
        <time>2018-04-12T07:49:12Z</time>
      </trkpt>
      <trkpt lat="44.47905" lon="1.58182">
        <ele>145.3</ele>
        <time>2018-04-12T07:49:32Z</time>
      </trkpt>
      <trkpt lat="44.47902" lon="1.58211">
        <ele>147.22</ele>
        <time>2018-04-12T07:49:54Z</time>
      </trkpt>
      <trkpt lat="44.47899" lon="1.58238">
        <ele>149.14</ele>
        <time>2018-04-12T07:50:17Z</time>
      </trkpt>
      <trkpt lat="44.47898" lon="1.58267">
        <ele>150.58</ele>
        <time>2018-04-12T07:50:39Z</time>
      </trkpt>
      <trkpt lat="44.47894" lon="1.58297">
        <ele>152.51</ele>
        <time>2018-04-12T07:51:04Z</time>
      </trkpt>
      <trkpt lat="44.47892" lon="1.58326">
        <ele>154.91</ele>
        <time>2018-04-12T07:51:25Z</time>
      </trkpt>
      <trkpt lat="44.47889" lon="1.58353">
        <ele>156.35</ele>
        <time>2018-04-12T07:51:46Z</time>
      </trkpt>
      <trkpt lat="44.47884" lon="1.58383">
        <ele>158.75</ele>
        <time>2018-04-12T07:52:09Z</time>
      </trkpt>
      <trkpt lat="44.4788" lon="1.58411">
        <ele>160.2</ele>
        <time>2018-04-12T07:52:27Z</time>
      </trkpt>
      <trkpt lat="44.47877" lon="1.58441">
        <ele>162.12</ele>
        <time>2018-04-12T07:52:45Z</time>
      </trkpt>
      <trkpt lat="44.47877" lon="1.58469">
        <ele>164.04</ele>
        <time>2018-04-12T07:53:05Z</time>
      </trkpt>
      <trkpt lat="44.47878" lon="1.58497">
        <ele>165.96</ele>
        <time>2018-04-12T07:53:23Z</time>
      </trkpt>
      <trkpt lat="44.47887" lon="1.58522">
        <ele>167.89</ele>
        <time>2018-04-12T07:53:42Z</time>
      </trkpt>
      <trkpt lat="44.47898" lon="1.58543">
        <ele>169.81</ele>
        <time>2018-04-12T07:54:01Z</time>
      </trkpt>
      <trkpt lat="44.479" lon="1.5857">
        <ele>172.21</ele>
        <time>2018-04-12T07:54:20Z</time>
      </trkpt>
      <trkpt lat="44.47902" lon="1.586">
        <ele>174.14</ele>
        <time>2018-04-12T07:54:38Z</time>
      </trkpt>
      <trkpt lat="44.47908" lon="1.58628">
        <ele>176.06</ele>
        <time>2018-04-12T07:55:00Z</time>
      </trkpt>
      <trkpt lat="44.47914" lon="1.58654">
        <ele>177.98</ele>
        <time>2018-04-12T07:55:21Z</time>
      </trkpt>
      <trkpt lat="44.47928" lon="1.58644">
        <ele>180.87</ele>
        <time>2018-04-12T07:56:02Z</time>
      </trkpt>
      <trkpt lat="44.47949" lon="1.58633">
        <ele>186.15</ele>
        <time>2018-04-12T07:56:34Z</time>
      </trkpt>
      <trkpt lat="44.47969" lon="1.58623">
        <ele>190.48</ele>
        <time>2018-04-12T07:57:01Z</time>
      </trkpt>
      <trkpt lat="44.47986" lon="1.58608">
        <ele>195.77</ele>
        <time>2018-04-12T07:57:34Z</time>
      </trkpt>
      <trkpt lat="44.48004" lon="1.5859">
        <ele>201.05</ele>
        <time>2018-04-12T07:58:07Z</time>
      </trkpt>
      <trkpt lat="44.48025" lon="1.58573">
        <ele>206.34</ele>
        <time>2018-04-12T07:58:58Z</time>
      </trkpt>
      <trkpt lat="44.48031" lon="1.58548">
        <ele>208.26</ele>
        <time>2018-04-12T08:00:41Z</time>
      </trkpt>
      <trkpt lat="44.48034" lon="1.58519">
        <ele>210.19</ele>
        <time>2018-04-12T08:01:07Z</time>
      </trkpt>
      <trkpt lat="44.48031" lon="1.58485">
        <ele>212.59</ele>
        <time>2018-04-12T08:01:34Z</time>
      </trkpt>
      <trkpt lat="44.48028" lon="1.58453">
        <ele>214.99</ele>
        <time>2018-04-12T08:02:00Z</time>
      </trkpt>
      <trkpt lat="44.48032" lon="1.58423">
        <ele>217.4</ele>
        <time>2018-04-12T08:02:28Z</time>
      </trkpt>
      <trkpt lat="44.48035" lon="1.58375">
        <ele>230.85</ele>
        <time>2018-04-12T08:03:46Z</time>
      </trkpt>
      <trkpt lat="44.48028" lon="1.58378">
        <ele>230.37</ele>
        <time>2018-04-12T08:05:45Z</time>
      </trkpt>
      <trkpt lat="44.48019" lon="1.58352">
        <ele>227.01</ele>
        <time>2018-04-12T08:07:35Z</time>
      </trkpt>
      <trkpt lat="44.48016" lon="1.58323">
        <ele>222.2</ele>
        <time>2018-04-12T08:08:42Z</time>
      </trkpt>
      <trkpt lat="44.48019" lon="1.58293">
        <ele>221.24</ele>
        <time>2018-04-12T08:09:43Z</time>
      </trkpt>
      <trkpt lat="44.48023" lon="1.58265">
        <ele>219.32</ele>
        <time>2018-04-12T08:10:21Z</time>
      </trkpt>
      <trkpt lat="44.48027" lon="1.58232">
        <ele>215.95</ele>
        <time>2018-04-12T08:11:08Z</time>
      </trkpt>
      <trkpt lat="44.48029" lon="1.58202">
        <ele>214.51</ele>
        <time>2018-04-12T08:11:59Z</time>
      </trkpt>
      <trkpt lat="44.48031" lon="1.58169">
        <ele>213.07</ele>
        <time>2018-04-12T08:12:23Z</time>
      </trkpt>
      <trkpt lat="44.48039" lon="1.58129">
        <ele>212.59</ele>
        <time>2018-04-12T08:13:02Z</time>
      </trkpt>
      <trkpt lat="44.48037" lon="1.58095">
        <ele>211.63</ele>
        <time>2018-04-12T08:13:30Z</time>
      </trkpt>
      <trkpt lat="44.48028" lon="1.58069">
        <ele>210.67</ele>
        <time>2018-04-12T08:14:01Z</time>
      </trkpt>
      <trkpt lat="44.48019" lon="1.58041">
        <ele>208.74</ele>
        <time>2018-04-12T08:14:46Z</time>
      </trkpt>
      <trkpt lat="44.4801" lon="1.58015">
        <ele>206.82</ele>
        <time>2018-04-12T08:15:22Z</time>
      </trkpt>
      <trkpt lat="44.48003" lon="1.57981">
        <ele>206.34</ele>
        <time>2018-04-12T08:15:56Z</time>
      </trkpt>
      <trkpt lat="44.47995" lon="1.57954">
        <ele>204.42</ele>
        <time>2018-04-12T08:16:27Z</time>
      </trkpt>
      <trkpt lat="44.47986" lon="1.57927">
        <ele>201.05</ele>
        <time>2018-04-12T08:16:59Z</time>
      </trkpt>
      <trkpt lat="44.47983" lon="1.57897">
        <ele>202.49</ele>
        <time>2018-04-12T08:17:27Z</time>
      </trkpt>
      <trkpt lat="44.47981" lon="1.5787">
        <ele>201.53</ele>
        <time>2018-04-12T08:17:55Z</time>
      </trkpt>
      <trkpt lat="44.47975" lon="1.57831">
        <ele>199.61</ele>
        <time>2018-04-12T08:20:22Z</time>
      </trkpt>
      <trkpt lat="44.47986" lon="1.57791">
        <ele>208.74</ele>
        <time>2018-04-12T08:21:24Z</time>
      </trkpt>
      <trkpt lat="44.48008" lon="1.57792">
        <ele>223.64</ele>
        <time>2018-04-12T08:23:02Z</time>
      </trkpt>
      <trkpt lat="44.48" lon="1.57766">
        <ele>227.01</ele>
        <time>2018-04-12T08:23:40Z</time>
      </trkpt>
      <trkpt lat="44.47992" lon="1.57742">
        <ele>227.49</ele>
        <time>2018-04-12T08:24:09Z</time>
      </trkpt>
      <trkpt lat="44.48002" lon="1.5772">
        <ele>227.97</ele>
        <time>2018-04-12T08:24:38Z</time>
      </trkpt>
      <trkpt lat="44.47994" lon="1.57687">
        <ele>229.89</ele>
        <time>2018-04-12T08:25:08Z</time>
      </trkpt>
      <trkpt lat="44.47989" lon="1.5766">
        <ele>233.74</ele>
        <time>2018-04-12T08:25:36Z</time>
      </trkpt>
      <trkpt lat="44.47999" lon="1.57635">
        <ele>239.99</ele>
        <time>2018-04-12T08:26:15Z</time>
      </trkpt>
      <trkpt lat="44.47997" lon="1.57627">
        <ele>239.51</ele>
        <time>2018-04-12T08:34:15Z</time>
      </trkpt>
      <trkpt lat="44.48008" lon="1.57652">
        <ele>241.43</ele>
        <time>2018-04-12T08:34:56Z</time>
      </trkpt>
      <trkpt lat="44.48018" lon="1.5768">
        <ele>243.35</ele>
        <time>2018-04-12T08:35:31Z</time>
      </trkpt>
      <trkpt lat="44.48021" lon="1.57708">
        <ele>244.31</ele>
        <time>2018-04-12T08:35:51Z</time>
      </trkpt>
      <trkpt lat="44.48021" lon="1.57732">
        <ele>246.23</ele>
        <time>2018-04-12T08:36:19Z</time>
      </trkpt>
      <trkpt lat="44.48024" lon="1.57754">
        <ele>247.2</ele>
        <time>2018-04-12T08:36:59Z</time>
      </trkpt>
      <trkpt lat="44.48028" lon="1.57779">
        <ele>247.68</ele>
        <time>2018-04-12T08:37:17Z</time>
      </trkpt>
      <trkpt lat="44.48035" lon="1.57805">
        <ele>249.12</ele>
        <time>2018-04-12T08:37:37Z</time>
      </trkpt>
      <trkpt lat="44.48039" lon="1.57832">
        <ele>251.52</ele>
        <time>2018-04-12T08:37:58Z</time>
      </trkpt>
      <trkpt lat="44.48041" lon="1.57848">
        <ele>252.96</ele>
        <time>2018-04-12T08:39:12Z</time>
      </trkpt>
      <trkpt lat="44.48044" lon="1.57866">
        <ele>253.44</ele>
        <time>2018-04-12T08:40:40Z</time>
      </trkpt>
      <trkpt lat="44.48052" lon="1.57888">
        <ele>253.93</ele>
        <time>2018-04-12T08:41:03Z</time>
      </trkpt>
      <trkpt lat="44.48064" lon="1.5791">
        <ele>254.41</ele>
        <time>2018-04-12T08:41:22Z</time>
      </trkpt>
      <trkpt lat="44.48073" lon="1.57934">
        <ele>254.41</ele>
        <time>2018-04-12T08:41:40Z</time>
      </trkpt>
      <trkpt lat="44.48081" lon="1.57958">
        <ele>255.37</ele>
        <time>2018-04-12T08:41:58Z</time>
      </trkpt>
      <trkpt lat="44.48094" lon="1.5798">
        <ele>255.85</ele>
        <time>2018-04-12T08:42:18Z</time>
      </trkpt>
      <trkpt lat="44.48115" lon="1.57993">
        <ele>255.85</ele>
        <time>2018-04-12T08:42:40Z</time>
      </trkpt>
      <trkpt lat="44.48137" lon="1.57989">
        <ele>255.85</ele>
        <time>2018-04-12T08:42:59Z</time>
      </trkpt>
      <trkpt lat="44.48158" lon="1.5798">
        <ele>254.41</ele>
        <time>2018-04-12T08:43:17Z</time>
      </trkpt>
      <trkpt lat="44.48172" lon="1.57962">
        <ele>253.93</ele>
        <time>2018-04-12T08:43:38Z</time>
      </trkpt>
      <trkpt lat="44.48186" lon="1.57941">
        <ele>255.37</ele>
        <time>2018-04-12T08:43:59Z</time>
      </trkpt>
      <trkpt lat="44.48197" lon="1.57915">
        <ele>255.85</ele>
        <time>2018-04-12T08:44:24Z</time>
      </trkpt>
      <trkpt lat="44.48204" lon="1.57888">
        <ele>256.33</ele>
        <time>2018-04-12T08:44:47Z</time>
      </trkpt>
      <trkpt lat="44.48216" lon="1.57862">
        <ele>256.33</ele>
        <time>2018-04-12T08:45:08Z</time>
      </trkpt>
      <trkpt lat="44.48231" lon="1.57842">
        <ele>255.37</ele>
        <time>2018-04-12T08:45:27Z</time>
      </trkpt>
      <trkpt lat="44.48249" lon="1.57828">
        <ele>254.89</ele>
        <time>2018-04-12T08:45:44Z</time>
      </trkpt>
      <trkpt lat="44.48268" lon="1.57818">
        <ele>253.93</ele>
        <time>2018-04-12T08:46:01Z</time>
      </trkpt>
      <trkpt lat="44.48287" lon="1.57806">
        <ele>253.44</ele>
        <time>2018-04-12T08:46:18Z</time>
      </trkpt>
      <trkpt lat="44.483" lon="1.57781">
        <ele>252</ele>
        <time>2018-04-12T08:46:37Z</time>
      </trkpt>
      <trkpt lat="44.48307" lon="1.57751">
        <ele>250.56</ele>
        <time>2018-04-12T08:46:55Z</time>
      </trkpt>
      <trkpt lat="44.48313" lon="1.57722">
        <ele>249.12</ele>
        <time>2018-04-12T08:47:15Z</time>
      </trkpt>
      <trkpt lat="44.48312" lon="1.57694">
        <ele>248.64</ele>
        <time>2018-04-12T08:47:35Z</time>
      </trkpt>
      <trkpt lat="44.48308" lon="1.57666">
        <ele>247.2</ele>
        <time>2018-04-12T08:47:52Z</time>
      </trkpt>
      <trkpt lat="44.48301" lon="1.57637">
        <ele>246.72</ele>
        <time>2018-04-12T08:48:14Z</time>
      </trkpt>
      <trkpt lat="44.48291" lon="1.57609">
        <ele>245.75</ele>
        <time>2018-04-12T08:48:31Z</time>
      </trkpt>
      <trkpt lat="44.48284" lon="1.57584">
        <ele>245.27</ele>
        <time>2018-04-12T08:48:47Z</time>
      </trkpt>
      <trkpt lat="44.48283" lon="1.57556">
        <ele>245.27</ele>
        <time>2018-04-12T08:49:04Z</time>
      </trkpt>
      <trkpt lat="44.48284" lon="1.57527">
        <ele>244.79</ele>
        <time>2018-04-12T08:49:22Z</time>
      </trkpt>
      <trkpt lat="44.48289" lon="1.57499">
        <ele>244.31</ele>
        <time>2018-04-12T08:49:38Z</time>
      </trkpt>
      <trkpt lat="44.48296" lon="1.5747">
        <ele>244.31</ele>
        <time>2018-04-12T08:49:54Z</time>
      </trkpt>
      <trkpt lat="44.48303" lon="1.57445">
        <ele>243.35</ele>
        <time>2018-04-12T08:50:09Z</time>
      </trkpt>
      <trkpt lat="44.48312" lon="1.57421">
        <ele>243.35</ele>
        <time>2018-04-12T08:50:27Z</time>
      </trkpt>
      <trkpt lat="44.48321" lon="1.57395">
        <ele>243.35</ele>
        <time>2018-04-12T08:50:45Z</time>
      </trkpt>
      <trkpt lat="44.48329" lon="1.57366">
        <ele>243.35</ele>
        <time>2018-04-12T08:51:02Z</time>
      </trkpt>
      <trkpt lat="44.48336" lon="1.57338">
        <ele>245.27</ele>
        <time>2018-04-12T08:51:20Z</time>
      </trkpt>
      <trkpt lat="44.48347" lon="1.57311">
        <ele>246.72</ele>
        <time>2018-04-12T08:51:41Z</time>
      </trkpt>
      <trkpt lat="44.48357" lon="1.57283">
        <ele>248.16</ele>
        <time>2018-04-12T08:52:01Z</time>
      </trkpt>
      <trkpt lat="44.48372" lon="1.57255">
        <ele>248.64</ele>
        <time>2018-04-12T08:52:20Z</time>
      </trkpt>
      <trkpt lat="44.48383" lon="1.57227">
        <ele>248.64</ele>
        <time>2018-04-12T08:52:39Z</time>
      </trkpt>
      <trkpt lat="44.48398" lon="1.57206">
        <ele>247.2</ele>
        <time>2018-04-12T08:53:00Z</time>
      </trkpt>
      <trkpt lat="44.48414" lon="1.57179">
        <ele>245.75</ele>
        <time>2018-04-12T08:53:21Z</time>
      </trkpt>
      <trkpt lat="44.48426" lon="1.57148">
        <ele>244.31</ele>
        <time>2018-04-12T08:53:42Z</time>
      </trkpt>
      <trkpt lat="44.48436" lon="1.57118">
        <ele>243.35</ele>
        <time>2018-04-12T08:54:03Z</time>
      </trkpt>
      <trkpt lat="44.48449" lon="1.57085">
        <ele>240.47</ele>
        <time>2018-04-12T08:54:25Z</time>
      </trkpt>
      <trkpt lat="44.48459" lon="1.57047">
        <ele>239.51</ele>
        <time>2018-04-12T08:54:48Z</time>
      </trkpt>
      <trkpt lat="44.48471" lon="1.57011">
        <ele>238.06</ele>
        <time>2018-04-12T08:55:12Z</time>
      </trkpt>
      <trkpt lat="44.48484" lon="1.5698">
        <ele>238.06</ele>
        <time>2018-04-12T08:55:34Z</time>
      </trkpt>
      <trkpt lat="44.48498" lon="1.56957">
        <ele>239.99</ele>
        <time>2018-04-12T08:55:53Z</time>
      </trkpt>
      <trkpt lat="44.48514" lon="1.56935">
        <ele>240.95</ele>
        <time>2018-04-12T08:56:12Z</time>
      </trkpt>
      <trkpt lat="44.48531" lon="1.56912">
        <ele>241.43</ele>
        <time>2018-04-12T08:56:35Z</time>
      </trkpt>
      <trkpt lat="44.48547" lon="1.56888">
        <ele>241.43</ele>
        <time>2018-04-12T08:56:58Z</time>
      </trkpt>
      <trkpt lat="44.48567" lon="1.56859">
        <ele>239.02</ele>
        <time>2018-04-12T08:57:22Z</time>
      </trkpt>
      <trkpt lat="44.48589" lon="1.56836">
        <ele>236.62</ele>
        <time>2018-04-12T08:57:45Z</time>
      </trkpt>
      <trkpt lat="44.4861" lon="1.56819">
        <ele>234.22</ele>
        <time>2018-04-12T08:58:10Z</time>
      </trkpt>
      <trkpt lat="44.48624" lon="1.56786">
        <ele>230.85</ele>
        <time>2018-04-12T08:58:33Z</time>
      </trkpt>
      <trkpt lat="44.48634" lon="1.56758">
        <ele>229.41</ele>
        <time>2018-04-12T08:58:52Z</time>
      </trkpt>
      <trkpt lat="44.48641" lon="1.56728">
        <ele>228.93</ele>
        <time>2018-04-12T08:59:09Z</time>
      </trkpt>
      <trkpt lat="44.48649" lon="1.56701">
        <ele>229.89</ele>
        <time>2018-04-12T08:59:27Z</time>
      </trkpt>
      <trkpt lat="44.48658" lon="1.56669">
        <ele>232.78</ele>
        <time>2018-04-12T08:59:52Z</time>
      </trkpt>
      <trkpt lat="44.4867" lon="1.56637">
        <ele>234.22</ele>
        <time>2018-04-12T09:00:16Z</time>
      </trkpt>
      <trkpt lat="44.48678" lon="1.56604">
        <ele>235.18</ele>
        <time>2018-04-12T09:00:37Z</time>
      </trkpt>
      <trkpt lat="44.48685" lon="1.56575">
        <ele>236.62</ele>
        <time>2018-04-12T09:00:57Z</time>
      </trkpt>
      <trkpt lat="44.4869" lon="1.56544">
        <ele>238.54</ele>
        <time>2018-04-12T09:01:19Z</time>
      </trkpt>
      <trkpt lat="44.48702" lon="1.56518">
        <ele>239.99</ele>
        <time>2018-04-12T09:01:38Z</time>
      </trkpt>
      <trkpt lat="44.48708" lon="1.56501">
        <ele>239.99</ele>
        <time>2018-04-12T09:02:12Z</time>
      </trkpt>
      <trkpt lat="44.48723" lon="1.56485">
        <ele>240.95</ele>
        <time>2018-04-12T09:04:04Z</time>
      </trkpt>
      <trkpt lat="44.48737" lon="1.56462">
        <ele>239.51</ele>
        <time>2018-04-12T09:04:53Z</time>
      </trkpt>
      <trkpt lat="44.48752" lon="1.56438">
        <ele>239.99</ele>
        <time>2018-04-12T09:05:30Z</time>
      </trkpt>
      <trkpt lat="44.48771" lon="1.56424">
        <ele>239.99</ele>
        <time>2018-04-12T09:05:57Z</time>
      </trkpt>
      <trkpt lat="44.48793" lon="1.56415">
        <ele>239.51</ele>
        <time>2018-04-12T09:06:21Z</time>
      </trkpt>
      <trkpt lat="44.48815" lon="1.56407">
        <ele>238.54</ele>
        <time>2018-04-12T09:06:44Z</time>
      </trkpt>
      <trkpt lat="44.48838" lon="1.564">
        <ele>238.54</ele>
        <time>2018-04-12T09:07:06Z</time>
      </trkpt>
      <trkpt lat="44.4886" lon="1.56394">
        <ele>238.54</ele>
        <time>2018-04-12T09:07:25Z</time>
      </trkpt>
      <trkpt lat="44.48883" lon="1.56386">
        <ele>239.99</ele>
        <time>2018-04-12T09:07:45Z</time>
      </trkpt>
      <trkpt lat="44.48905" lon="1.56374">
        <ele>240.95</ele>
        <time>2018-04-12T09:08:07Z</time>
      </trkpt>
      <trkpt lat="44.48929" lon="1.56362">
        <ele>240.95</ele>
        <time>2018-04-12T09:08:29Z</time>
      </trkpt>
      <trkpt lat="44.4895" lon="1.5635">
        <ele>240.95</ele>
        <time>2018-04-12T09:08:47Z</time>
      </trkpt>
      <trkpt lat="44.48969" lon="1.56334">
        <ele>241.43</ele>
        <time>2018-04-12T09:09:05Z</time>
      </trkpt>
      <trkpt lat="44.48987" lon="1.56317">
        <ele>241.43</ele>
        <time>2018-04-12T09:09:24Z</time>
      </trkpt>
      <trkpt lat="44.49006" lon="1.56294">
        <ele>242.39</ele>
        <time>2018-04-12T09:09:43Z</time>
      </trkpt>
      <trkpt lat="44.4902" lon="1.5627">
        <ele>242.87</ele>
        <time>2018-04-12T09:10:00Z</time>
      </trkpt>
      <trkpt lat="44.49038" lon="1.56255">
        <ele>244.31</ele>
        <time>2018-04-12T09:10:23Z</time>
      </trkpt>
      <trkpt lat="44.49056" lon="1.56239">
        <ele>246.72</ele>
        <time>2018-04-12T09:10:44Z</time>
      </trkpt>
      <trkpt lat="44.49079" lon="1.56219">
        <ele>249.6</ele>
        <time>2018-04-12T09:11:05Z</time>
      </trkpt>
      <trkpt lat="44.49102" lon="1.56206">
        <ele>250.56</ele>
        <time>2018-04-12T09:11:25Z</time>
      </trkpt>
      <trkpt lat="44.49129" lon="1.56203">
        <ele>252</ele>
        <time>2018-04-12T09:11:47Z</time>
      </trkpt>
      <trkpt lat="44.49154" lon="1.56206">
        <ele>252.48</ele>
        <time>2018-04-12T09:12:06Z</time>
      </trkpt>
      <trkpt lat="44.49177" lon="1.56213">
        <ele>252.48</ele>
        <time>2018-04-12T09:12:25Z</time>
      </trkpt>
      <trkpt lat="44.49197" lon="1.56214">
        <ele>252.96</ele>
        <time>2018-04-12T09:12:42Z</time>
      </trkpt>
      <trkpt lat="44.49218" lon="1.56207">
        <ele>253.44</ele>
        <time>2018-04-12T09:12:59Z</time>
      </trkpt>
      <trkpt lat="44.49239" lon="1.56202">
        <ele>253.44</ele>
        <time>2018-04-12T09:13:16Z</time>
      </trkpt>
      <trkpt lat="44.49263" lon="1.56201">
        <ele>253.44</ele>
        <time>2018-04-12T09:13:37Z</time>
      </trkpt>
      <trkpt lat="44.49289" lon="1.56214">
        <ele>254.41</ele>
        <time>2018-04-12T09:14:00Z</time>
      </trkpt>
      <trkpt lat="44.49318" lon="1.56218">
        <ele>255.37</ele>
        <time>2018-04-12T09:14:23Z</time>
      </trkpt>
      <trkpt lat="44.49346" lon="1.56224">
        <ele>255.85</ele>
        <time>2018-04-12T09:14:47Z</time>
      </trkpt>
      <trkpt lat="44.49369" lon="1.56216">
        <ele>256.33</ele>
        <time>2018-04-12T09:15:09Z</time>
      </trkpt>
      <trkpt lat="44.49388" lon="1.56193">
        <ele>256.33</ele>
        <time>2018-04-12T09:15:30Z</time>
      </trkpt>
      <trkpt lat="44.494" lon="1.56166">
        <ele>256.33</ele>
        <time>2018-04-12T09:15:50Z</time>
      </trkpt>
      <trkpt lat="44.49416" lon="1.56141">
        <ele>255.85</ele>
        <time>2018-04-12T09:16:12Z</time>
      </trkpt>
      <trkpt lat="44.49437" lon="1.56113">
        <ele>257.29</ele>
        <time>2018-04-12T09:16:38Z</time>
      </trkpt>
      <trkpt lat="44.49464" lon="1.56105">
        <ele>257.77</ele>
        <time>2018-04-12T09:17:01Z</time>
      </trkpt>
      <trkpt lat="44.49491" lon="1.56116">
        <ele>256.33</ele>
        <time>2018-04-12T09:17:27Z</time>
      </trkpt>
      <trkpt lat="44.4952" lon="1.56125">
        <ele>254.41</ele>
        <time>2018-04-12T09:17:53Z</time>
      </trkpt>
      <trkpt lat="44.49545" lon="1.56133">
        <ele>252</ele>
        <time>2018-04-12T09:18:16Z</time>
      </trkpt>
      <trkpt lat="44.49568" lon="1.56145">
        <ele>252</ele>
        <time>2018-04-12T09:18:35Z</time>
      </trkpt>
      <trkpt lat="44.49592" lon="1.5617">
        <ele>252</ele>
        <time>2018-04-12T09:18:59Z</time>
      </trkpt>
      <trkpt lat="44.49611" lon="1.56196">
        <ele>252</ele>
        <time>2018-04-12T09:19:23Z</time>
      </trkpt>
      <trkpt lat="44.49617" lon="1.56229">
        <ele>250.56</ele>
        <time>2018-04-12T09:19:45Z</time>
      </trkpt>
      <trkpt lat="44.49623" lon="1.56262">
        <ele>250.08</ele>
        <time>2018-04-12T09:20:06Z</time>
      </trkpt>
      <trkpt lat="44.49633" lon="1.56291">
        <ele>248.64</ele>
        <time>2018-04-12T09:20:27Z</time>
      </trkpt>
      <trkpt lat="44.4965" lon="1.56322">
        <ele>246.23</ele>
        <time>2018-04-12T09:20:49Z</time>
      </trkpt>
      <trkpt lat="44.49668" lon="1.56349">
        <ele>242.39</ele>
        <time>2018-04-12T09:21:18Z</time>
      </trkpt>
      <trkpt lat="44.49686" lon="1.56379">
        <ele>239.02</ele>
        <time>2018-04-12T09:21:46Z</time>
      </trkpt>
      <trkpt lat="44.49698" lon="1.56405">
        <ele>234.7</ele>
        <time>2018-04-12T09:22:11Z</time>
      </trkpt>
      <trkpt lat="44.49714" lon="1.56435">
        <ele>230.37</ele>
        <time>2018-04-12T09:22:39Z</time>
      </trkpt>
      <trkpt lat="44.49729" lon="1.56466">
        <ele>225.09</ele>
        <time>2018-04-12T09:23:08Z</time>
      </trkpt>
      <trkpt lat="44.49742" lon="1.56497">
        <ele>218.84</ele>
        <time>2018-04-12T09:23:47Z</time>
      </trkpt>
      <trkpt lat="44.49755" lon="1.56533">
        <ele>213.07</ele>
        <time>2018-04-12T09:24:18Z</time>
      </trkpt>
      <trkpt lat="44.49763" lon="1.56568">
        <ele>205.86</ele>
        <time>2018-04-12T09:24:54Z</time>
      </trkpt>
      <trkpt lat="44.49768" lon="1.56585">
        <ele>201.05</ele>
        <time>2018-04-12T09:28:14Z</time>
      </trkpt>
      <trkpt lat="44.49781" lon="1.56559">
        <ele>198.17</ele>
        <time>2018-04-12T09:28:38Z</time>
      </trkpt>
      <trkpt lat="44.49799" lon="1.56536">
        <ele>193.36</ele>
        <time>2018-04-12T09:29:04Z</time>
      </trkpt>
      <trkpt lat="44.49818" lon="1.56514">
        <ele>190</ele>
        <time>2018-04-12T09:29:26Z</time>
      </trkpt>
      <trkpt lat="44.4982" lon="1.56483">
        <ele>188.08</ele>
        <time>2018-04-12T09:29:44Z</time>
      </trkpt>
      <trkpt lat="44.49811" lon="1.56451">
        <ele>186.15</ele>
        <time>2018-04-12T09:30:05Z</time>
      </trkpt>
      <trkpt lat="44.49807" lon="1.56418">
        <ele>182.31</ele>
        <time>2018-04-12T09:30:27Z</time>
      </trkpt>
      <trkpt lat="44.49807" lon="1.56388">
        <ele>180.38</ele>
        <time>2018-04-12T09:30:49Z</time>
      </trkpt>
      <trkpt lat="44.49806" lon="1.56353">
        <ele>177.98</ele>
        <time>2018-04-12T09:31:09Z</time>
      </trkpt>
      <trkpt lat="44.49815" lon="1.56324">
        <ele>175.58</ele>
        <time>2018-04-12T09:31:31Z</time>
      </trkpt>
      <trkpt lat="44.49826" lon="1.5629">
        <ele>173.17</ele>
        <time>2018-04-12T09:31:53Z</time>
      </trkpt>
      <trkpt lat="44.49839" lon="1.5626">
        <ele>170.77</ele>
        <time>2018-04-12T09:32:15Z</time>
      </trkpt>
      <trkpt lat="44.49848" lon="1.56228">
        <ele>167.89</ele>
        <time>2018-04-12T09:32:36Z</time>
      </trkpt>
      <trkpt lat="44.49861" lon="1.56198">
        <ele>166.45</ele>
        <time>2018-04-12T09:33:00Z</time>
      </trkpt>
      <trkpt lat="44.49863" lon="1.56161">
        <ele>164.04</ele>
        <time>2018-04-12T09:33:24Z</time>
      </trkpt>
      <trkpt lat="44.49863" lon="1.56128">
        <ele>161.16</ele>
        <time>2018-04-12T09:33:43Z</time>
      </trkpt>
      <trkpt lat="44.49858" lon="1.56098">
        <ele>159.24</ele>
        <time>2018-04-12T09:34:02Z</time>
      </trkpt>
      <trkpt lat="44.49847" lon="1.56072">
        <ele>157.31</ele>
        <time>2018-04-12T09:34:21Z</time>
      </trkpt>
      <trkpt lat="44.4985" lon="1.56041">
        <ele>155.39</ele>
        <time>2018-04-12T09:34:42Z</time>
      </trkpt>
      <trkpt lat="44.49847" lon="1.56009">
        <ele>152.03</ele>
        <time>2018-04-12T09:35:04Z</time>
      </trkpt>
      <trkpt lat="44.49845" lon="1.55976">
        <ele>150.1</ele>
        <time>2018-04-12T09:35:37Z</time>
      </trkpt>
      <trkpt lat="44.49856" lon="1.55955">
        <ele>148.18</ele>
        <time>2018-04-12T09:35:57Z</time>
      </trkpt>
      <trkpt lat="44.4987" lon="1.5593">
        <ele>146.26</ele>
        <time>2018-04-12T09:36:16Z</time>
      </trkpt>
      <trkpt lat="44.49887" lon="1.55911">
        <ele>144.34</ele>
        <time>2018-04-12T09:36:38Z</time>
      </trkpt>
      <trkpt lat="44.49871" lon="1.55898">
        <ele>143.37</ele>
        <time>2018-04-12T09:38:58Z</time>
      </trkpt>
      <trkpt lat="44.49851" lon="1.55892">
        <ele>143.37</ele>
        <time>2018-04-12T09:39:16Z</time>
      </trkpt>
      <trkpt lat="44.49832" lon="1.55884">
        <ele>143.37</ele>
        <time>2018-04-12T09:39:32Z</time>
      </trkpt>
      <trkpt lat="44.49812" lon="1.55876">
        <ele>143.37</ele>
        <time>2018-04-12T09:39:50Z</time>
      </trkpt>
      <trkpt lat="44.49794" lon="1.55858">
        <ele>142.41</ele>
        <time>2018-04-12T09:40:10Z</time>
      </trkpt>
      <trkpt lat="44.49772" lon="1.55832">
        <ele>141.93</ele>
        <time>2018-04-12T09:40:34Z</time>
      </trkpt>
      <trkpt lat="44.4976" lon="1.55809">
        <ele>142.41</ele>
        <time>2018-04-12T09:40:50Z</time>
      </trkpt>
      <trkpt lat="44.49738" lon="1.5577">
        <ele>142.41</ele>
        <time>2018-04-12T09:41:16Z</time>
      </trkpt>
      <trkpt lat="44.49723" lon="1.55745">
        <ele>145.78</ele>
        <time>2018-04-12T09:41:37Z</time>
      </trkpt>
      <trkpt lat="44.49701" lon="1.55704">
        <ele>150.58</ele>
        <time>2018-04-12T09:42:14Z</time>
      </trkpt>
      <trkpt lat="44.49698" lon="1.55671">
        <ele>154.91</ele>
        <time>2018-04-12T09:42:45Z</time>
      </trkpt>
      <trkpt lat="44.49704" lon="1.55637">
        <ele>155.39</ele>
        <time>2018-04-12T09:43:08Z</time>
      </trkpt>
      <trkpt lat="44.49709" lon="1.55606">
        <ele>155.39</ele>
        <time>2018-04-12T09:43:29Z</time>
      </trkpt>
      <trkpt lat="44.49698" lon="1.55579">
        <ele>155.39</ele>
        <time>2018-04-12T09:43:50Z</time>
      </trkpt>
      <trkpt lat="44.49678" lon="1.55565">
        <ele>155.39</ele>
        <time>2018-04-12T09:44:08Z</time>
      </trkpt>
      <trkpt lat="44.49659" lon="1.55552">
        <ele>155.39</ele>
        <time>2018-04-12T09:44:26Z</time>
      </trkpt>
      <trkpt lat="44.49643" lon="1.55535">
        <ele>153.95</ele>
        <time>2018-04-12T09:44:43Z</time>
      </trkpt>
      <trkpt lat="44.49626" lon="1.55517">
        <ele>153.47</ele>
        <time>2018-04-12T09:45:01Z</time>
      </trkpt>
      <trkpt lat="44.49609" lon="1.5549">
        <ele>152.99</ele>
        <time>2018-04-12T09:45:22Z</time>
      </trkpt>
      <trkpt lat="44.49597" lon="1.55461">
        <ele>152.51</ele>
        <time>2018-04-12T09:45:40Z</time>
      </trkpt>
      <trkpt lat="44.4959" lon="1.55431">
        <ele>151.06</ele>
        <time>2018-04-12T09:45:56Z</time>
      </trkpt>
      <trkpt lat="44.49577" lon="1.55404">
        <ele>150.58</ele>
        <time>2018-04-12T09:46:18Z</time>
      </trkpt>
      <trkpt lat="44.49558" lon="1.55415">
        <ele>146.74</ele>
        <time>2018-04-12T09:46:40Z</time>
      </trkpt>
      <trkpt lat="44.49539" lon="1.55445">
        <ele>141.93</ele>
        <time>2018-04-12T09:47:05Z</time>
      </trkpt>
      <trkpt lat="44.49519" lon="1.5547">
        <ele>140.01</ele>
        <time>2018-04-12T09:47:27Z</time>
      </trkpt>
      <trkpt lat="44.49496" lon="1.55515">
        <ele>137.61</ele>
        <time>2018-04-12T09:47:53Z</time>
      </trkpt>
      <trkpt lat="44.49482" lon="1.55542">
        <ele>137.13</ele>
        <time>2018-04-12T09:48:11Z</time>
      </trkpt>
      <trkpt lat="44.49472" lon="1.55572">
        <ele>136.16</ele>
        <time>2018-04-12T09:48:30Z</time>
      </trkpt>
      <trkpt lat="44.49453" lon="1.55602">
        <ele>135.2</ele>
        <time>2018-04-12T09:48:50Z</time>
      </trkpt>
      <trkpt lat="44.4944" lon="1.55627">
        <ele>137.61</ele>
        <time>2018-04-12T09:49:11Z</time>
      </trkpt>
      <trkpt lat="44.49422" lon="1.55652">
        <ele>137.61</ele>
        <time>2018-04-12T09:49:34Z</time>
      </trkpt>
      <trkpt lat="44.494" lon="1.55674">
        <ele>137.13</ele>
        <time>2018-04-12T09:49:54Z</time>
      </trkpt>
      <trkpt lat="44.49381" lon="1.55692">
        <ele>139.05</ele>
        <time>2018-04-12T09:50:14Z</time>
      </trkpt>
      <trkpt lat="44.4936" lon="1.55712">
        <ele>138.57</ele>
        <time>2018-04-12T09:50:32Z</time>
      </trkpt>
      <trkpt lat="44.49335" lon="1.55724">
        <ele>138.57</ele>
        <time>2018-04-12T09:50:51Z</time>
      </trkpt>
      <trkpt lat="44.4931" lon="1.55734">
        <ele>138.09</ele>
        <time>2018-04-12T09:51:11Z</time>
      </trkpt>
      <trkpt lat="44.49288" lon="1.55738">
        <ele>135.68</ele>
        <time>2018-04-12T09:51:30Z</time>
      </trkpt>
      <trkpt lat="44.49265" lon="1.55746">
        <ele>134.24</ele>
        <time>2018-04-12T09:51:49Z</time>
      </trkpt>
      <trkpt lat="44.49241" lon="1.55755">
        <ele>133.28</ele>
        <time>2018-04-12T09:52:09Z</time>
      </trkpt>
      <trkpt lat="44.4922" lon="1.55765">
        <ele>132.8</ele>
        <time>2018-04-12T09:52:26Z</time>
      </trkpt>
      <trkpt lat="44.49199" lon="1.5577">
        <ele>132.8</ele>
        <time>2018-04-12T09:52:43Z</time>
      </trkpt>
      <trkpt lat="44.49177" lon="1.55774">
        <ele>134.24</ele>
        <time>2018-04-12T09:53:01Z</time>
      </trkpt>
      <trkpt lat="44.49155" lon="1.55775">
        <ele>134.24</ele>
        <time>2018-04-12T09:53:17Z</time>
      </trkpt>
      <trkpt lat="44.49135" lon="1.55778">
        <ele>135.2</ele>
        <time>2018-04-12T09:53:38Z</time>
      </trkpt>
      <trkpt lat="44.49114" lon="1.55779">
        <ele>135.2</ele>
        <time>2018-04-12T09:53:56Z</time>
      </trkpt>
      <trkpt lat="44.49094" lon="1.5577">
        <ele>132.8</ele>
        <time>2018-04-12T09:54:17Z</time>
      </trkpt>
      <trkpt lat="44.49073" lon="1.55761">
        <ele>132.32</ele>
        <time>2018-04-12T09:54:38Z</time>
      </trkpt>
      <trkpt lat="44.49043" lon="1.55744">
        <ele>132.8</ele>
        <time>2018-04-12T09:56:31Z</time>
      </trkpt>
      <trkpt lat="44.49024" lon="1.55733">
        <ele>133.76</ele>
        <time>2018-04-12T09:56:51Z</time>
      </trkpt>
      <trkpt lat="44.49007" lon="1.55717">
        <ele>134.24</ele>
        <time>2018-04-12T09:57:11Z</time>
      </trkpt>
      <trkpt lat="44.48987" lon="1.55699">
        <ele>134.24</ele>
        <time>2018-04-12T09:57:29Z</time>
      </trkpt>
      <trkpt lat="44.48967" lon="1.55675">
        <ele>134.72</ele>
        <time>2018-04-12T09:57:52Z</time>
      </trkpt>
      <trkpt lat="44.48946" lon="1.55653">
        <ele>136.16</ele>
        <time>2018-04-12T09:58:15Z</time>
      </trkpt>
      <trkpt lat="44.48931" lon="1.5562">
        <ele>136.16</ele>
        <time>2018-04-12T09:58:33Z</time>
      </trkpt>
      <trkpt lat="44.48914" lon="1.55594">
        <ele>134.72</ele>
        <time>2018-04-12T09:58:51Z</time>
      </trkpt>
      <trkpt lat="44.489" lon="1.55568">
        <ele>132.8</ele>
        <time>2018-04-12T09:59:10Z</time>
      </trkpt>
      <trkpt lat="44.48885" lon="1.55539">
        <ele>132.8</ele>
        <time>2018-04-12T09:59:31Z</time>
      </trkpt>
      <trkpt lat="44.48873" lon="1.55509">
        <ele>132.32</ele>
        <time>2018-04-12T09:59:51Z</time>
      </trkpt>
      <trkpt lat="44.48858" lon="1.55478">
        <ele>130.88</ele>
        <time>2018-04-12T10:00:09Z</time>
      </trkpt>
      <trkpt lat="44.48838" lon="1.55452">
        <ele>130.4</ele>
        <time>2018-04-12T10:00:25Z</time>
      </trkpt>
      <trkpt lat="44.48826" lon="1.55421">
        <ele>129.92</ele>
        <time>2018-04-12T10:00:43Z</time>
      </trkpt>
      <trkpt lat="44.48811" lon="1.55398">
        <ele>128.95</ele>
        <time>2018-04-12T10:01:03Z</time>
      </trkpt>
      <trkpt lat="44.48793" lon="1.55384">
        <ele>128.95</ele>
        <time>2018-04-12T10:01:21Z</time>
      </trkpt>
      <trkpt lat="44.48775" lon="1.55374">
        <ele>127.99</ele>
        <time>2018-04-12T10:01:36Z</time>
      </trkpt>
      <trkpt lat="44.48757" lon="1.55367">
        <ele>128.47</ele>
        <time>2018-04-12T10:01:50Z</time>
      </trkpt>
      <trkpt lat="44.48739" lon="1.55359">
        <ele>128.47</ele>
        <time>2018-04-12T10:02:06Z</time>
      </trkpt>
      <trkpt lat="44.4872" lon="1.55355">
        <ele>128.47</ele>
        <time>2018-04-12T10:02:22Z</time>
      </trkpt>
      <trkpt lat="44.48701" lon="1.5535">
        <ele>127.99</ele>
        <time>2018-04-12T10:02:36Z</time>
      </trkpt>
      <trkpt lat="44.48682" lon="1.55355">
        <ele>127.99</ele>
        <time>2018-04-12T10:02:55Z</time>
      </trkpt>
      <trkpt lat="44.48664" lon="1.55363">
        <ele>127.99</ele>
        <time>2018-04-12T10:03:11Z</time>
      </trkpt>
      <trkpt lat="44.48646" lon="1.55376">
        <ele>127.51</ele>
        <time>2018-04-12T10:03:29Z</time>
      </trkpt>
      <trkpt lat="44.48627" lon="1.55389">
        <ele>127.99</ele>
        <time>2018-04-12T10:03:46Z</time>
      </trkpt>
      <trkpt lat="44.48612" lon="1.55408">
        <ele>127.51</ele>
        <time>2018-04-12T10:04:06Z</time>
      </trkpt>
      <trkpt lat="44.48611" lon="1.55436">
        <ele>126.55</ele>
        <time>2018-04-12T10:04:25Z</time>
      </trkpt>
      <trkpt lat="44.4859" lon="1.55443">
        <ele>124.63</ele>
        <time>2018-04-12T10:05:04Z</time>
      </trkpt>
      <trkpt lat="44.48576" lon="1.55449">
        <ele>122.22</ele>
        <time>2018-04-12T10:05:22Z</time>
      </trkpt>
      <trkpt lat="44.48567" lon="1.55466">
        <ele>119.82</ele>
        <time>2018-04-12T10:05:54Z</time>
      </trkpt>
      <trkpt lat="44.4855" lon="1.55447">
        <ele>118.86</ele>
        <time>2018-04-12T10:06:19Z</time>
      </trkpt>
      <trkpt lat="44.48535" lon="1.55424">
        <ele>118.38</ele>
        <time>2018-04-12T10:06:37Z</time>
      </trkpt>
      <trkpt lat="44.48517" lon="1.55406">
        <ele>118.38</ele>
        <time>2018-04-12T10:07:09Z</time>
      </trkpt>
      <trkpt lat="44.48505" lon="1.5538">
        <ele>117.42</ele>
        <time>2018-04-12T10:07:31Z</time>
      </trkpt>
      <trkpt lat="44.48494" lon="1.5535">
        <ele>116.46</ele>
        <time>2018-04-12T10:07:53Z</time>
      </trkpt>
      <trkpt lat="44.4849" lon="1.55323">
        <ele>115.98</ele>
        <time>2018-04-12T10:09:13Z</time>
      </trkpt>
      <trkpt lat="44.48482" lon="1.55318">
        <ele>113.57</ele>
        <time>2018-04-12T11:39:47Z</time>
      </trkpt>
      <trkpt lat="44.48467" lon="1.55337">
        <ele>115.01</ele>
        <time>2018-04-12T11:40:25Z</time>
      </trkpt>
      <trkpt lat="44.48443" lon="1.55338">
        <ele>115.01</ele>
        <time>2018-04-12T11:41:12Z</time>
      </trkpt>
      <trkpt lat="44.48435" lon="1.55344">
        <ele>115.5</ele>
        <time>2018-04-12T11:42:43Z</time>
      </trkpt>
      <trkpt lat="44.48453" lon="1.55328">
        <ele>115.5</ele>
        <time>2018-04-12T11:43:16Z</time>
      </trkpt>
      <trkpt lat="44.48446" lon="1.55311">
        <ele>115.5</ele>
        <time>2018-04-12T11:44:24Z</time>
      </trkpt>
      <trkpt lat="44.48455" lon="1.55285">
        <ele>117.42</ele>
        <time>2018-04-12T11:44:45Z</time>
      </trkpt>
      <trkpt lat="44.4847" lon="1.5526">
        <ele>119.34</ele>
        <time>2018-04-12T11:45:07Z</time>
      </trkpt>
      <trkpt lat="44.4847" lon="1.55236">
        <ele>120.78</ele>
        <time>2018-04-12T11:45:28Z</time>
      </trkpt>
      <trkpt lat="44.48466" lon="1.55201">
        <ele>123.19</ele>
        <time>2018-04-12T11:46:01Z</time>
      </trkpt>
      <trkpt lat="44.48464" lon="1.55167">
        <ele>125.11</ele>
        <time>2018-04-12T11:46:24Z</time>
      </trkpt>
      <trkpt lat="44.48449" lon="1.55144">
        <ele>125.11</ele>
        <time>2018-04-12T11:46:53Z</time>
      </trkpt>
      <trkpt lat="44.48418" lon="1.55153">
        <ele>123.67</ele>
        <time>2018-04-12T11:47:26Z</time>
      </trkpt>
      <trkpt lat="44.48399" lon="1.55148">
        <ele>123.67</ele>
        <time>2018-04-12T11:47:45Z</time>
      </trkpt>
      <trkpt lat="44.48377" lon="1.5515">
        <ele>125.11</ele>
        <time>2018-04-12T11:48:04Z</time>
      </trkpt>
      <trkpt lat="44.48358" lon="1.55155">
        <ele>126.07</ele>
        <time>2018-04-12T11:48:22Z</time>
      </trkpt>
      <trkpt lat="44.48339" lon="1.55164">
        <ele>127.03</ele>
        <time>2018-04-12T11:48:40Z</time>
      </trkpt>
      <trkpt lat="44.48322" lon="1.55181">
        <ele>127.99</ele>
        <time>2018-04-12T11:48:59Z</time>
      </trkpt>
      <trkpt lat="44.4831" lon="1.55203">
        <ele>128.47</ele>
        <time>2018-04-12T11:49:18Z</time>
      </trkpt>
      <trkpt lat="44.48299" lon="1.55224">
        <ele>128.47</ele>
        <time>2018-04-12T11:49:37Z</time>
      </trkpt>
      <trkpt lat="44.48288" lon="1.55245">
        <ele>127.51</ele>
        <time>2018-04-12T11:49:55Z</time>
      </trkpt>
      <trkpt lat="44.48276" lon="1.55267">
        <ele>127.03</ele>
        <time>2018-04-12T11:50:12Z</time>
      </trkpt>
      <trkpt lat="44.48264" lon="1.55289">
        <ele>126.55</ele>
        <time>2018-04-12T11:50:28Z</time>
      </trkpt>
      <trkpt lat="44.48253" lon="1.55311">
        <ele>126.07</ele>
        <time>2018-04-12T11:50:44Z</time>
      </trkpt>
      <trkpt lat="44.48242" lon="1.55332">
        <ele>125.11</ele>
        <time>2018-04-12T11:51:01Z</time>
      </trkpt>
      <trkpt lat="44.48231" lon="1.55353">
        <ele>124.63</ele>
        <time>2018-04-12T11:51:18Z</time>
      </trkpt>
      <trkpt lat="44.4822" lon="1.55374">
        <ele>124.63</ele>
        <time>2018-04-12T11:51:35Z</time>
      </trkpt>
      <trkpt lat="44.48207" lon="1.55396">
        <ele>125.59</ele>
        <time>2018-04-12T11:51:54Z</time>
      </trkpt>
      <trkpt lat="44.48194" lon="1.55419">
        <ele>126.55</ele>
        <time>2018-04-12T11:52:13Z</time>
      </trkpt>
      <trkpt lat="44.48181" lon="1.55442">
        <ele>127.99</ele>
        <time>2018-04-12T11:52:33Z</time>
      </trkpt>
      <trkpt lat="44.4817" lon="1.55465">
        <ele>128.95</ele>
        <time>2018-04-12T11:52:51Z</time>
      </trkpt>
      <trkpt lat="44.48157" lon="1.55488">
        <ele>129.92</ele>
        <time>2018-04-12T11:53:10Z</time>
      </trkpt>
      <trkpt lat="44.48145" lon="1.5551">
        <ele>131.36</ele>
        <time>2018-04-12T11:53:29Z</time>
      </trkpt>
      <trkpt lat="44.48128" lon="1.55524">
        <ele>132.8</ele>
        <time>2018-04-12T11:53:48Z</time>
      </trkpt>
      <trkpt lat="44.4811" lon="1.55518">
        <ele>133.76</ele>
        <time>2018-04-12T11:54:05Z</time>
      </trkpt>
      <trkpt lat="44.48095" lon="1.55501">
        <ele>133.76</ele>
        <time>2018-04-12T11:54:23Z</time>
      </trkpt>
      <trkpt lat="44.48077" lon="1.5549">
        <ele>134.24</ele>
        <time>2018-04-12T11:54:41Z</time>
      </trkpt>
      <trkpt lat="44.48058" lon="1.55485">
        <ele>135.2</ele>
        <time>2018-04-12T11:56:11Z</time>
      </trkpt>
      <trkpt lat="44.48038" lon="1.55484">
        <ele>135.68</ele>
        <time>2018-04-12T11:56:31Z</time>
      </trkpt>
      <trkpt lat="44.48017" lon="1.55488">
        <ele>136.64</ele>
        <time>2018-04-12T11:56:54Z</time>
      </trkpt>
      <trkpt lat="44.47999" lon="1.55496">
        <ele>136.64</ele>
        <time>2018-04-12T11:57:12Z</time>
      </trkpt>
      <trkpt lat="44.47982" lon="1.55508">
        <ele>137.61</ele>
        <time>2018-04-12T11:57:32Z</time>
      </trkpt>
      <trkpt lat="44.47966" lon="1.55526">
        <ele>139.05</ele>
        <time>2018-04-12T11:57:51Z</time>
      </trkpt>
      <trkpt lat="44.47951" lon="1.55545">
        <ele>141.45</ele>
        <time>2018-04-12T11:58:12Z</time>
      </trkpt>
      <trkpt lat="44.47937" lon="1.55566">
        <ele>143.37</ele>
        <time>2018-04-12T11:58:33Z</time>
      </trkpt>
      <trkpt lat="44.47924" lon="1.55591">
        <ele>145.3</ele>
        <time>2018-04-12T11:58:52Z</time>
      </trkpt>
      <trkpt lat="44.4791" lon="1.55613">
        <ele>145.78</ele>
        <time>2018-04-12T11:59:13Z</time>
      </trkpt>
      <trkpt lat="44.4789" lon="1.55621">
        <ele>145.78</ele>
        <time>2018-04-12T11:59:35Z</time>
      </trkpt>
      <trkpt lat="44.47868" lon="1.5562">
        <ele>145.78</ele>
        <time>2018-04-12T11:59:58Z</time>
      </trkpt>
      <trkpt lat="44.47846" lon="1.55628">
        <ele>146.74</ele>
        <time>2018-04-12T12:00:17Z</time>
      </trkpt>
      <trkpt lat="44.47827" lon="1.55636">
        <ele>147.7</ele>
        <time>2018-04-12T12:00:35Z</time>
      </trkpt>
      <trkpt lat="44.47808" lon="1.55643">
        <ele>148.18</ele>
        <time>2018-04-12T12:00:54Z</time>
      </trkpt>
      <trkpt lat="44.47789" lon="1.55654">
        <ele>148.66</ele>
        <time>2018-04-12T12:01:14Z</time>
      </trkpt>
      <trkpt lat="44.4777" lon="1.55662">
        <ele>148.66</ele>
        <time>2018-04-12T12:01:35Z</time>
      </trkpt>
      <trkpt lat="44.47754" lon="1.55674">
        <ele>147.22</ele>
        <time>2018-04-12T12:01:53Z</time>
      </trkpt>
      <trkpt lat="44.4774" lon="1.55691">
        <ele>145.78</ele>
        <time>2018-04-12T12:02:10Z</time>
      </trkpt>
      <trkpt lat="44.47729" lon="1.55713">
        <ele>145.3</ele>
        <time>2018-04-12T12:02:27Z</time>
      </trkpt>
      <trkpt lat="44.4773" lon="1.5574">
        <ele>145.78</ele>
        <time>2018-04-12T12:02:46Z</time>
      </trkpt>
      <trkpt lat="44.47728" lon="1.55769">
        <ele>146.74</ele>
        <time>2018-04-12T12:03:05Z</time>
      </trkpt>
      <trkpt lat="44.47726" lon="1.55798">
        <ele>146.74</ele>
        <time>2018-04-12T12:03:25Z</time>
      </trkpt>
      <trkpt lat="44.47727" lon="1.55823">
        <ele>146.74</ele>
        <time>2018-04-12T12:03:41Z</time>
      </trkpt>
      <trkpt lat="44.47715" lon="1.55846">
        <ele>145.78</ele>
        <time>2018-04-12T12:04:00Z</time>
      </trkpt>
      <trkpt lat="44.47693" lon="1.55847">
        <ele>147.7</ele>
        <time>2018-04-12T12:04:34Z</time>
      </trkpt>
      <trkpt lat="44.47672" lon="1.55838">
        <ele>150.1</ele>
        <time>2018-04-12T12:05:03Z</time>
      </trkpt>
      <trkpt lat="44.47651" lon="1.55824">
        <ele>154.91</ele>
        <time>2018-04-12T12:05:33Z</time>
      </trkpt>
      <trkpt lat="44.47628" lon="1.55801">
        <ele>158.75</ele>
        <time>2018-04-12T12:06:07Z</time>
      </trkpt>
      <trkpt lat="44.47608" lon="1.5577">
        <ele>163.56</ele>
        <time>2018-04-12T12:06:39Z</time>
      </trkpt>
      <trkpt lat="44.47589" lon="1.55731">
        <ele>167.41</ele>
        <time>2018-04-12T12:07:10Z</time>
      </trkpt>
      <trkpt lat="44.47574" lon="1.55698">
        <ele>171.25</ele>
        <time>2018-04-12T12:07:40Z</time>
      </trkpt>
      <trkpt lat="44.47565" lon="1.55663">
        <ele>175.58</ele>
        <time>2018-04-12T12:08:14Z</time>
      </trkpt>
      <trkpt lat="44.4755" lon="1.55649">
        <ele>178.94</ele>
        <time>2018-04-12T12:08:46Z</time>
      </trkpt>
      <trkpt lat="44.4755" lon="1.5568">
        <ele>179.9</ele>
        <time>2018-04-12T12:09:10Z</time>
      </trkpt>
      <trkpt lat="44.47549" lon="1.55715">
        <ele>182.79</ele>
        <time>2018-04-12T12:09:34Z</time>
      </trkpt>
      <trkpt lat="44.47539" lon="1.55704">
        <ele>186.15</ele>
        <time>2018-04-12T12:10:05Z</time>
      </trkpt>
      <trkpt lat="44.47529" lon="1.55678">
        <ele>188.08</ele>
        <time>2018-04-12T12:10:30Z</time>
      </trkpt>
      <trkpt lat="44.47517" lon="1.55646">
        <ele>190.96</ele>
        <time>2018-04-12T12:10:56Z</time>
      </trkpt>
      <trkpt lat="44.47504" lon="1.55616">
        <ele>193.84</ele>
        <time>2018-04-12T12:11:20Z</time>
      </trkpt>
      <trkpt lat="44.47495" lon="1.55586">
        <ele>196.73</ele>
        <time>2018-04-12T12:11:45Z</time>
      </trkpt>
      <trkpt lat="44.47488" lon="1.55554">
        <ele>199.61</ele>
        <time>2018-04-12T12:12:10Z</time>
      </trkpt>
      <trkpt lat="44.47481" lon="1.55521">
        <ele>201.05</ele>
        <time>2018-04-12T12:12:34Z</time>
      </trkpt>
      <trkpt lat="44.47472" lon="1.5549">
        <ele>204.42</ele>
        <time>2018-04-12T12:12:58Z</time>
      </trkpt>
      <trkpt lat="44.47456" lon="1.55472">
        <ele>207.3</ele>
        <time>2018-04-12T12:13:20Z</time>
      </trkpt>
      <trkpt lat="44.47436" lon="1.55468">
        <ele>209.7</ele>
        <time>2018-04-12T12:13:42Z</time>
      </trkpt>
      <trkpt lat="44.47413" lon="1.55472">
        <ele>212.11</ele>
        <time>2018-04-12T12:14:39Z</time>
      </trkpt>
      <trkpt lat="44.4741" lon="1.55479">
        <ele>214.99</ele>
        <time>2018-04-12T12:19:16Z</time>
      </trkpt>
      <trkpt lat="44.47395" lon="1.55501">
        <ele>218.84</ele>
        <time>2018-04-12T12:19:38Z</time>
      </trkpt>
      <trkpt lat="44.47381" lon="1.55521">
        <ele>222.2</ele>
        <time>2018-04-12T12:20:00Z</time>
      </trkpt>
      <trkpt lat="44.47364" lon="1.55544">
        <ele>225.57</ele>
        <time>2018-04-12T12:20:23Z</time>
      </trkpt>
      <trkpt lat="44.47348" lon="1.55567">
        <ele>228.93</ele>
        <time>2018-04-12T12:20:45Z</time>
      </trkpt>
      <trkpt lat="44.47332" lon="1.55585">
        <ele>231.81</ele>
        <time>2018-04-12T12:21:03Z</time>
      </trkpt>
      <trkpt lat="44.47323" lon="1.55607">
        <ele>234.22</ele>
        <time>2018-04-12T12:21:21Z</time>
      </trkpt>
      <trkpt lat="44.47325" lon="1.55634">
        <ele>237.58</ele>
        <time>2018-04-12T12:21:40Z</time>
      </trkpt>
      <trkpt lat="44.47333" lon="1.55659">
        <ele>239.51</ele>
        <time>2018-04-12T12:21:57Z</time>
      </trkpt>
      <trkpt lat="44.4735" lon="1.55674">
        <ele>239.51</ele>
        <time>2018-04-12T12:22:18Z</time>
      </trkpt>
      <trkpt lat="44.47364" lon="1.5569">
        <ele>238.54</ele>
        <time>2018-04-12T12:22:43Z</time>
      </trkpt>
      <trkpt lat="44.4736" lon="1.55717">
        <ele>238.54</ele>
        <time>2018-04-12T12:23:02Z</time>
      </trkpt>
      <trkpt lat="44.47353" lon="1.55743">
        <ele>239.99</ele>
        <time>2018-04-12T12:23:25Z</time>
      </trkpt>
      <trkpt lat="44.47347" lon="1.55765">
        <ele>240.47</ele>
        <time>2018-04-12T12:24:40Z</time>
      </trkpt>
      <trkpt lat="44.47323" lon="1.55758">
        <ele>245.75</ele>
        <time>2018-04-12T12:26:14Z</time>
      </trkpt>
      <trkpt lat="44.47303" lon="1.5575">
        <ele>248.64</ele>
        <time>2018-04-12T12:26:40Z</time>
      </trkpt>
      <trkpt lat="44.47287" lon="1.55749">
        <ele>250.56</ele>
        <time>2018-04-12T12:27:03Z</time>
      </trkpt>
      <trkpt lat="44.47269" lon="1.55754">
        <ele>251.52</ele>
        <time>2018-04-12T12:27:24Z</time>
      </trkpt>
      <trkpt lat="44.47248" lon="1.55763">
        <ele>252</ele>
        <time>2018-04-12T12:27:46Z</time>
      </trkpt>
      <trkpt lat="44.47231" lon="1.55774">
        <ele>252.48</ele>
        <time>2018-04-12T12:28:07Z</time>
      </trkpt>
      <trkpt lat="44.47216" lon="1.55785">
        <ele>252.96</ele>
        <time>2018-04-12T12:28:33Z</time>
      </trkpt>
      <trkpt lat="44.47198" lon="1.55775">
        <ele>250.56</ele>
        <time>2018-04-12T12:28:57Z</time>
      </trkpt>
      <trkpt lat="44.4717" lon="1.5578">
        <ele>248.16</ele>
        <time>2018-04-12T12:29:28Z</time>
      </trkpt>
      <trkpt lat="44.47142" lon="1.55793">
        <ele>251.04</ele>
        <time>2018-04-12T12:29:58Z</time>
      </trkpt>
      <trkpt lat="44.47114" lon="1.55808">
        <ele>259.21</ele>
        <time>2018-04-12T12:30:48Z</time>
      </trkpt>
      <trkpt lat="44.47087" lon="1.55819">
        <ele>266.9</ele>
        <time>2018-04-12T12:31:30Z</time>
      </trkpt>
      <trkpt lat="44.47061" lon="1.55834">
        <ele>270.75</ele>
        <time>2018-04-12T12:32:03Z</time>
      </trkpt>
      <trkpt lat="44.47037" lon="1.55847">
        <ele>273.63</ele>
        <time>2018-04-12T12:32:30Z</time>
      </trkpt>
      <trkpt lat="44.47019" lon="1.55864">
        <ele>276.04</ele>
        <time>2018-04-12T12:32:54Z</time>
      </trkpt>
      <trkpt lat="44.46996" lon="1.55871">
        <ele>277</ele>
        <time>2018-04-12T12:33:17Z</time>
      </trkpt>
      <trkpt lat="44.46969" lon="1.55879">
        <ele>278.44</ele>
        <time>2018-04-12T12:33:42Z</time>
      </trkpt>
      <trkpt lat="44.46944" lon="1.55891">
        <ele>279.4</ele>
        <time>2018-04-12T12:34:05Z</time>
      </trkpt>
      <trkpt lat="44.46919" lon="1.55904">
        <ele>281.32</ele>
        <time>2018-04-12T12:34:29Z</time>
      </trkpt>
      <trkpt lat="44.46893" lon="1.55913">
        <ele>284.21</ele>
        <time>2018-04-12T12:34:56Z</time>
      </trkpt>
      <trkpt lat="44.46868" lon="1.55926">
        <ele>286.61</ele>
        <time>2018-04-12T12:35:22Z</time>
      </trkpt>
      <trkpt lat="44.46845" lon="1.55942">
        <ele>288.53</ele>
        <time>2018-04-12T12:35:46Z</time>
      </trkpt>
      <trkpt lat="44.46822" lon="1.55955">
        <ele>290.94</ele>
        <time>2018-04-12T12:36:13Z</time>
      </trkpt>
      <trkpt lat="44.468" lon="1.5597">
        <ele>292.86</ele>
        <time>2018-04-12T12:36:35Z</time>
      </trkpt>
      <trkpt lat="44.46778" lon="1.55983">
        <ele>294.3</ele>
        <time>2018-04-12T12:36:58Z</time>
      </trkpt>
      <trkpt lat="44.46757" lon="1.56">
        <ele>294.78</ele>
        <time>2018-04-12T12:37:19Z</time>
      </trkpt>
      <trkpt lat="44.46736" lon="1.56016">
        <ele>295.26</ele>
        <time>2018-04-12T12:37:43Z</time>
      </trkpt>
      <trkpt lat="44.46717" lon="1.56035">
        <ele>295.74</ele>
        <time>2018-04-12T12:38:08Z</time>
      </trkpt>
      <trkpt lat="44.46699" lon="1.56057">
        <ele>296.7</ele>
        <time>2018-04-12T12:38:34Z</time>
      </trkpt>
      <trkpt lat="44.46679" lon="1.56074">
        <ele>297.18</ele>
        <time>2018-04-12T12:38:58Z</time>
      </trkpt>
      <trkpt lat="44.46664" lon="1.56099">
        <ele>298.63</ele>
        <time>2018-04-12T12:39:22Z</time>
      </trkpt>
      <trkpt lat="44.46648" lon="1.56122">
        <ele>300.07</ele>
        <time>2018-04-12T12:39:45Z</time>
      </trkpt>
      <trkpt lat="44.46633" lon="1.56147">
        <ele>301.03</ele>
        <time>2018-04-12T12:40:07Z</time>
      </trkpt>
      <trkpt lat="44.4662" lon="1.56173">
        <ele>301.99</ele>
        <time>2018-04-12T12:40:29Z</time>
      </trkpt>
      <trkpt lat="44.46608" lon="1.56183">
        <ele>302.95</ele>
        <time>2018-04-12T12:41:00Z</time>
      </trkpt>
      <trkpt lat="44.46594" lon="1.56208">
        <ele>304.39</ele>
        <time>2018-04-12T12:41:22Z</time>
      </trkpt>
      <trkpt lat="44.46592" lon="1.56204">
        <ele>306.32</ele>
        <time>2018-04-12T12:43:48Z</time>
      </trkpt>
      <trkpt lat="44.46608" lon="1.56182">
        <ele>303.91</ele>
        <time>2018-04-12T12:44:13Z</time>
      </trkpt>
      <trkpt lat="44.46615" lon="1.56177">
        <ele>304.39</ele>
        <time>2018-04-12T12:46:24Z</time>
      </trkpt>
      <trkpt lat="44.466" lon="1.56198">
        <ele>306.8</ele>
        <time>2018-04-12T12:47:57Z</time>
      </trkpt>
      <trkpt lat="44.46583" lon="1.56216">
        <ele>308.24</ele>
        <time>2018-04-12T12:48:17Z</time>
      </trkpt>
      <trkpt lat="44.46569" lon="1.56234">
        <ele>308.24</ele>
        <time>2018-04-12T12:48:34Z</time>
      </trkpt>
      <trkpt lat="44.46551" lon="1.56241">
        <ele>306.8</ele>
        <time>2018-04-12T12:48:51Z</time>
      </trkpt>
      <trkpt lat="44.46531" lon="1.56241">
        <ele>305.84</ele>
        <time>2018-04-12T12:49:11Z</time>
      </trkpt>
      <trkpt lat="44.46517" lon="1.56261">
        <ele>304.88</ele>
        <time>2018-04-12T12:49:29Z</time>
      </trkpt>
      <trkpt lat="44.46498" lon="1.56272">
        <ele>302.95</ele>
        <time>2018-04-12T12:49:47Z</time>
      </trkpt>
      <trkpt lat="44.46479" lon="1.56285">
        <ele>300.55</ele>
        <time>2018-04-12T12:50:07Z</time>
      </trkpt>
      <trkpt lat="44.46464" lon="1.56306">
        <ele>297.67</ele>
        <time>2018-04-12T12:50:27Z</time>
      </trkpt>
      <trkpt lat="44.46459" lon="1.56332">
        <ele>296.22</ele>
        <time>2018-04-12T12:50:45Z</time>
      </trkpt>
      <trkpt lat="44.46447" lon="1.56356">
        <ele>293.82</ele>
        <time>2018-04-12T12:51:03Z</time>
      </trkpt>
      <trkpt lat="44.46433" lon="1.56376">
        <ele>291.9</ele>
        <time>2018-04-12T12:51:20Z</time>
      </trkpt>
      <trkpt lat="44.46416" lon="1.56391">
        <ele>290.46</ele>
        <time>2018-04-12T12:51:38Z</time>
      </trkpt>
      <trkpt lat="44.464" lon="1.56407">
        <ele>289.01</ele>
        <time>2018-04-12T12:51:56Z</time>
      </trkpt>
      <trkpt lat="44.46383" lon="1.56425">
        <ele>287.57</ele>
        <time>2018-04-12T12:52:14Z</time>
      </trkpt>
      <trkpt lat="44.46366" lon="1.56441">
        <ele>286.61</ele>
        <time>2018-04-12T12:52:31Z</time>
      </trkpt>
      <trkpt lat="44.46349" lon="1.56459">
        <ele>286.13</ele>
        <time>2018-04-12T12:52:48Z</time>
      </trkpt>
      <trkpt lat="44.46334" lon="1.56476">
        <ele>286.13</ele>
        <time>2018-04-12T12:53:04Z</time>
      </trkpt>
      <trkpt lat="44.4632" lon="1.56492">
        <ele>286.13</ele>
        <time>2018-04-12T12:53:20Z</time>
      </trkpt>
      <trkpt lat="44.46304" lon="1.56508">
        <ele>286.13</ele>
        <time>2018-04-12T12:53:37Z</time>
      </trkpt>
      <trkpt lat="44.46285" lon="1.5652">
        <ele>286.13</ele>
        <time>2018-04-12T12:53:55Z</time>
      </trkpt>
      <trkpt lat="44.46266" lon="1.56533">
        <ele>286.13</ele>
        <time>2018-04-12T12:54:14Z</time>
      </trkpt>
      <trkpt lat="44.46248" lon="1.56547">
        <ele>287.09</ele>
        <time>2018-04-12T12:54:31Z</time>
      </trkpt>
      <trkpt lat="44.46231" lon="1.56562">
        <ele>287.09</ele>
        <time>2018-04-12T12:54:48Z</time>
      </trkpt>
      <trkpt lat="44.46214" lon="1.56575">
        <ele>288.05</ele>
        <time>2018-04-12T12:55:05Z</time>
      </trkpt>
      <trkpt lat="44.46197" lon="1.56589">
        <ele>288.05</ele>
        <time>2018-04-12T12:55:22Z</time>
      </trkpt>
      <trkpt lat="44.46185" lon="1.56608">
        <ele>289.01</ele>
        <time>2018-04-12T12:57:40Z</time>
      </trkpt>
      <trkpt lat="44.46166" lon="1.56613">
        <ele>289.49</ele>
        <time>2018-04-12T12:58:02Z</time>
      </trkpt>
      <trkpt lat="44.46145" lon="1.56627">
        <ele>290.46</ele>
        <time>2018-04-12T12:58:24Z</time>
      </trkpt>
      <trkpt lat="44.46124" lon="1.56639">
        <ele>291.9</ele>
        <time>2018-04-12T12:58:45Z</time>
      </trkpt>
      <trkpt lat="44.46103" lon="1.56653">
        <ele>293.34</ele>
        <time>2018-04-12T12:59:04Z</time>
      </trkpt>
      <trkpt lat="44.46085" lon="1.56669">
        <ele>294.78</ele>
        <time>2018-04-12T12:59:25Z</time>
      </trkpt>
      <trkpt lat="44.46069" lon="1.56689">
        <ele>296.22</ele>
        <time>2018-04-12T12:59:45Z</time>
      </trkpt>
      <trkpt lat="44.4605" lon="1.56702">
        <ele>297.67</ele>
        <time>2018-04-12T13:00:06Z</time>
      </trkpt>
      <trkpt lat="44.46029" lon="1.56719">
        <ele>299.59</ele>
        <time>2018-04-12T13:00:28Z</time>
      </trkpt>
      <trkpt lat="44.46012" lon="1.5674">
        <ele>300.07</ele>
        <time>2018-04-12T13:00:58Z</time>
      </trkpt>
      <trkpt lat="44.45998" lon="1.56758">
        <ele>300.07</ele>
        <time>2018-04-12T13:01:15Z</time>
      </trkpt>
      <trkpt lat="44.4598" lon="1.56783">
        <ele>300.07</ele>
        <time>2018-04-12T13:01:43Z</time>
      </trkpt>
      <trkpt lat="44.45959" lon="1.56801">
        <ele>300.07</ele>
        <time>2018-04-12T13:02:03Z</time>
      </trkpt>
      <trkpt lat="44.45937" lon="1.56813">
        <ele>298.63</ele>
        <time>2018-04-12T13:02:23Z</time>
      </trkpt>
      <trkpt lat="44.45915" lon="1.5682">
        <ele>298.63</ele>
        <time>2018-04-12T13:02:40Z</time>
      </trkpt>
      <trkpt lat="44.45895" lon="1.56831">
        <ele>298.15</ele>
        <time>2018-04-12T13:02:58Z</time>
      </trkpt>
      <trkpt lat="44.45873" lon="1.5684">
        <ele>298.15</ele>
        <time>2018-04-12T13:03:24Z</time>
      </trkpt>
      <trkpt lat="44.45886" lon="1.56855">
        <ele>297.67</ele>
        <time>2018-04-12T13:06:18Z</time>
      </trkpt>
      <trkpt lat="44.45906" lon="1.56867">
        <ele>293.82</ele>
        <time>2018-04-12T13:06:46Z</time>
      </trkpt>
      <trkpt lat="44.45929" lon="1.56877">
        <ele>289.49</ele>
        <time>2018-04-12T13:07:14Z</time>
      </trkpt>
      <trkpt lat="44.45953" lon="1.56887">
        <ele>287.09</ele>
        <time>2018-04-12T13:07:39Z</time>
      </trkpt>
      <trkpt lat="44.45974" lon="1.56892">
        <ele>284.69</ele>
        <time>2018-04-12T13:08:00Z</time>
      </trkpt>
      <trkpt lat="44.45994" lon="1.56899">
        <ele>282.28</ele>
        <time>2018-04-12T13:08:21Z</time>
      </trkpt>
      <trkpt lat="44.46015" lon="1.56901">
        <ele>279.88</ele>
        <time>2018-04-12T13:08:43Z</time>
      </trkpt>
      <trkpt lat="44.46037" lon="1.56904">
        <ele>277.48</ele>
        <time>2018-04-12T13:09:05Z</time>
      </trkpt>
      <trkpt lat="44.46058" lon="1.56914">
        <ele>275.07</ele>
        <time>2018-04-12T13:09:28Z</time>
      </trkpt>
      <trkpt lat="44.46079" lon="1.56924">
        <ele>272.19</ele>
        <time>2018-04-12T13:09:51Z</time>
      </trkpt>
      <trkpt lat="44.46099" lon="1.56944">
        <ele>269.79</ele>
        <time>2018-04-12T13:10:15Z</time>
      </trkpt>
      <trkpt lat="44.46113" lon="1.56967">
        <ele>268.35</ele>
        <time>2018-04-12T13:10:38Z</time>
      </trkpt>
      <trkpt lat="44.46129" lon="1.56982">
        <ele>266.9</ele>
        <time>2018-04-12T13:10:59Z</time>
      </trkpt>
      <trkpt lat="44.46144" lon="1.56999">
        <ele>265.46</ele>
        <time>2018-04-12T13:11:19Z</time>
      </trkpt>
      <trkpt lat="44.4616" lon="1.57018">
        <ele>264.02</ele>
        <time>2018-04-12T13:11:38Z</time>
      </trkpt>
      <trkpt lat="44.46172" lon="1.57041">
        <ele>263.54</ele>
        <time>2018-04-12T13:11:55Z</time>
      </trkpt>
      <trkpt lat="44.46184" lon="1.57064">
        <ele>263.06</ele>
        <time>2018-04-12T13:12:14Z</time>
      </trkpt>
      <trkpt lat="44.46194" lon="1.57089">
        <ele>262.58</ele>
        <time>2018-04-12T13:12:32Z</time>
      </trkpt>
      <trkpt lat="44.46206" lon="1.57112">
        <ele>262.58</ele>
        <time>2018-04-12T13:12:50Z</time>
      </trkpt>
      <trkpt lat="44.46215" lon="1.57138">
        <ele>262.58</ele>
        <time>2018-04-12T13:13:08Z</time>
      </trkpt>
      <trkpt lat="44.46225" lon="1.57163">
        <ele>262.58</ele>
        <time>2018-04-12T13:13:26Z</time>
      </trkpt>
      <trkpt lat="44.46237" lon="1.57187">
        <ele>262.58</ele>
        <time>2018-04-12T13:13:45Z</time>
      </trkpt>
      <trkpt lat="44.46249" lon="1.57209">
        <ele>263.54</ele>
        <time>2018-04-12T13:14:03Z</time>
      </trkpt>
      <trkpt lat="44.46264" lon="1.57226">
        <ele>264.5</ele>
        <time>2018-04-12T13:14:22Z</time>
      </trkpt>
      <trkpt lat="44.4628" lon="1.57241">
        <ele>264.98</ele>
        <time>2018-04-12T13:14:40Z</time>
      </trkpt>
      <trkpt lat="44.46298" lon="1.57261">
        <ele>266.42</ele>
        <time>2018-04-12T13:14:59Z</time>
      </trkpt>
      <trkpt lat="44.46314" lon="1.57281">
        <ele>267.86</ele>
        <time>2018-04-12T13:15:18Z</time>
      </trkpt>
      <trkpt lat="44.46329" lon="1.57303">
        <ele>268.83</ele>
        <time>2018-04-12T13:15:37Z</time>
      </trkpt>
      <trkpt lat="44.46342" lon="1.57325">
        <ele>270.27</ele>
        <time>2018-04-12T13:15:55Z</time>
      </trkpt>
      <trkpt lat="44.46356" lon="1.57348">
        <ele>272.19</ele>
        <time>2018-04-12T13:16:15Z</time>
      </trkpt>
      <trkpt lat="44.4637" lon="1.57369">
        <ele>273.63</ele>
        <time>2018-04-12T13:16:35Z</time>
      </trkpt>
      <trkpt lat="44.46386" lon="1.57387">
        <ele>275.56</ele>
        <time>2018-04-12T13:16:54Z</time>
      </trkpt>
      <trkpt lat="44.46402" lon="1.57406">
        <ele>276.04</ele>
        <time>2018-04-12T13:17:13Z</time>
      </trkpt>
      <trkpt lat="44.46414" lon="1.57428">
        <ele>277.48</ele>
        <time>2018-04-12T13:17:31Z</time>
      </trkpt>
      <trkpt lat="44.46429" lon="1.57449">
        <ele>277.96</ele>
        <time>2018-04-12T13:17:49Z</time>
      </trkpt>
      <trkpt lat="44.46446" lon="1.57465">
        <ele>278.44</ele>
        <time>2018-04-12T13:18:08Z</time>
      </trkpt>
      <trkpt lat="44.46465" lon="1.57479">
        <ele>278.92</ele>
        <time>2018-04-12T13:18:29Z</time>
      </trkpt>
      <trkpt lat="44.46484" lon="1.57492">
        <ele>279.88</ele>
        <time>2018-04-12T13:18:48Z</time>
      </trkpt>
      <trkpt lat="44.46501" lon="1.57509">
        <ele>279.88</ele>
        <time>2018-04-12T13:19:07Z</time>
      </trkpt>
      <trkpt lat="44.46519" lon="1.57526">
        <ele>280.36</ele>
        <time>2018-04-12T13:19:26Z</time>
      </trkpt>
      <trkpt lat="44.46538" lon="1.57516">
        <ele>280.84</ele>
        <time>2018-04-12T13:19:46Z</time>
      </trkpt>
      <trkpt lat="44.46549" lon="1.57493">
        <ele>280.84</ele>
        <time>2018-04-12T13:20:08Z</time>
      </trkpt>
      <trkpt lat="44.46562" lon="1.57488">
        <ele>279.88</ele>
        <time>2018-04-12T13:22:04Z</time>
      </trkpt>
      <trkpt lat="44.46549" lon="1.57501">
        <ele>281.32</ele>
        <time>2018-04-12T13:24:33Z</time>
      </trkpt>
      <trkpt lat="44.46539" lon="1.5752">
        <ele>282.28</ele>
        <time>2018-04-12T13:24:57Z</time>
      </trkpt>
      <trkpt lat="44.46537" lon="1.57541">
        <ele>282.77</ele>
        <time>2018-04-12T13:25:18Z</time>
      </trkpt>
      <trkpt lat="44.46553" lon="1.57559">
        <ele>282.77</ele>
        <time>2018-04-12T13:25:38Z</time>
      </trkpt>
      <trkpt lat="44.4657" lon="1.5758">
        <ele>282.77</ele>
        <time>2018-04-12T13:25:55Z</time>
      </trkpt>
      <trkpt lat="44.4659" lon="1.57595">
        <ele>283.25</ele>
        <time>2018-04-12T13:26:15Z</time>
      </trkpt>
      <trkpt lat="44.46609" lon="1.57614">
        <ele>283.25</ele>
        <time>2018-04-12T13:26:34Z</time>
      </trkpt>
      <trkpt lat="44.46622" lon="1.57637">
        <ele>283.25</ele>
        <time>2018-04-12T13:26:51Z</time>
      </trkpt>
      <trkpt lat="44.46639" lon="1.57644">
        <ele>283.25</ele>
        <time>2018-04-12T13:27:10Z</time>
      </trkpt>
      <trkpt lat="44.46661" lon="1.57646">
        <ele>281.32</ele>
        <time>2018-04-12T13:27:47Z</time>
      </trkpt>
      <trkpt lat="44.4668" lon="1.57663">
        <ele>279.4</ele>
        <time>2018-04-12T13:28:10Z</time>
      </trkpt>
      <trkpt lat="44.46689" lon="1.5769">
        <ele>277</ele>
        <time>2018-04-12T13:28:34Z</time>
      </trkpt>
      <trkpt lat="44.46706" lon="1.5771">
        <ele>274.11</ele>
        <time>2018-04-12T13:29:02Z</time>
      </trkpt>
      <trkpt lat="44.46729" lon="1.5772">
        <ele>270.27</ele>
        <time>2018-04-12T13:29:33Z</time>
      </trkpt>
      <trkpt lat="44.46753" lon="1.5773">
        <ele>265.46</ele>
        <time>2018-04-12T13:30:09Z</time>
      </trkpt>
      <trkpt lat="44.46776" lon="1.57745">
        <ele>260.17</ele>
        <time>2018-04-12T13:30:50Z</time>
      </trkpt>
      <trkpt lat="44.46791" lon="1.57766">
        <ele>255.85</ele>
        <time>2018-04-12T13:31:44Z</time>
      </trkpt>
      <trkpt lat="44.46803" lon="1.57791">
        <ele>251.52</ele>
        <time>2018-04-12T13:32:18Z</time>
      </trkpt>
      <trkpt lat="44.46816" lon="1.57813">
        <ele>247.2</ele>
        <time>2018-04-12T13:32:46Z</time>
      </trkpt>
      <trkpt lat="44.4683" lon="1.57836">
        <ele>243.35</ele>
        <time>2018-04-12T13:33:08Z</time>
      </trkpt>
      <trkpt lat="44.46841" lon="1.5786">
        <ele>239.99</ele>
        <time>2018-04-12T13:33:35Z</time>
      </trkpt>
      <trkpt lat="44.46859" lon="1.57878">
        <ele>237.1</ele>
        <time>2018-04-12T13:34:00Z</time>
      </trkpt>
      <trkpt lat="44.46878" lon="1.57886">
        <ele>235.18</ele>
        <time>2018-04-12T13:34:23Z</time>
      </trkpt>
      <trkpt lat="44.46898" lon="1.5789">
        <ele>232.78</ele>
        <time>2018-04-12T13:34:45Z</time>
      </trkpt>
      <trkpt lat="44.4692" lon="1.57896">
        <ele>228.93</ele>
        <time>2018-04-12T13:35:09Z</time>
      </trkpt>
      <trkpt lat="44.46939" lon="1.579">
        <ele>226.53</ele>
        <time>2018-04-12T13:35:32Z</time>
      </trkpt>
      <trkpt lat="44.46958" lon="1.57898">
        <ele>223.64</ele>
        <time>2018-04-12T13:35:54Z</time>
      </trkpt>
      <trkpt lat="44.46978" lon="1.57896">
        <ele>220.76</ele>
        <time>2018-04-12T13:36:33Z</time>
      </trkpt>
      <trkpt lat="44.46997" lon="1.57902">
        <ele>216.43</ele>
        <time>2018-04-12T13:36:57Z</time>
      </trkpt>
      <trkpt lat="44.47015" lon="1.5791">
        <ele>212.11</ele>
        <time>2018-04-12T13:37:25Z</time>
      </trkpt>
      <trkpt lat="44.47033" lon="1.57914">
        <ele>208.74</ele>
        <time>2018-04-12T13:37:49Z</time>
      </trkpt>
      <trkpt lat="44.47049" lon="1.57904">
        <ele>205.38</ele>
        <time>2018-04-12T13:38:13Z</time>
      </trkpt>
      <trkpt lat="44.47066" lon="1.57901">
        <ele>202.01</ele>
        <time>2018-04-12T13:38:37Z</time>
      </trkpt>
      <trkpt lat="44.47078" lon="1.57924">
        <ele>199.61</ele>
        <time>2018-04-12T13:38:59Z</time>
      </trkpt>
      <trkpt lat="44.4709" lon="1.57948">
        <ele>196.73</ele>
        <time>2018-04-12T13:39:21Z</time>
      </trkpt>
      <trkpt lat="44.47106" lon="1.57953">
        <ele>192.88</ele>
        <time>2018-04-12T13:39:45Z</time>
      </trkpt>
      <trkpt lat="44.47113" lon="1.57926">
        <ele>190.96</ele>
        <time>2018-04-12T13:40:06Z</time>
      </trkpt>
      <trkpt lat="44.47118" lon="1.57898">
        <ele>188.08</ele>
        <time>2018-04-12T13:40:27Z</time>
      </trkpt>
      <trkpt lat="44.47129" lon="1.57875">
        <ele>185.19</ele>
        <time>2018-04-12T13:40:49Z</time>
      </trkpt>
      <trkpt lat="44.47145" lon="1.57891">
        <ele>181.83</ele>
        <time>2018-04-12T13:41:10Z</time>
      </trkpt>
      <trkpt lat="44.47159" lon="1.57913">
        <ele>178.94</ele>
        <time>2018-04-12T13:41:33Z</time>
      </trkpt>
      <trkpt lat="44.47173" lon="1.57903">
        <ele>175.1</ele>
        <time>2018-04-12T13:41:57Z</time>
      </trkpt>
      <trkpt lat="44.47185" lon="1.57884">
        <ele>171.73</ele>
        <time>2018-04-12T13:42:23Z</time>
      </trkpt>
      <trkpt lat="44.47195" lon="1.57876">
        <ele>170.29</ele>
        <time>2018-04-12T13:44:11Z</time>
      </trkpt>
      <trkpt lat="44.47196" lon="1.57873">
        <ele>170.77</ele>
        <time>2018-04-12T13:48:02Z</time>
      </trkpt>
      <trkpt lat="44.47214" lon="1.57858">
        <ele>168.37</ele>
        <time>2018-04-12T13:48:18Z</time>
      </trkpt>
      <trkpt lat="44.47231" lon="1.57843">
        <ele>166.45</ele>
        <time>2018-04-12T13:48:36Z</time>
      </trkpt>
      <trkpt lat="44.47249" lon="1.57829">
        <ele>165.48</ele>
        <time>2018-04-12T13:48:56Z</time>
      </trkpt>
      <trkpt lat="44.47265" lon="1.57842">
        <ele>164.52</ele>
        <time>2018-04-12T13:49:14Z</time>
      </trkpt>
      <trkpt lat="44.47271" lon="1.57868">
        <ele>163.56</ele>
        <time>2018-04-12T13:49:30Z</time>
      </trkpt>
      <trkpt lat="44.47259" lon="1.57889">
        <ele>161.64</ele>
        <time>2018-04-12T13:49:47Z</time>
      </trkpt>
      <trkpt lat="44.47242" lon="1.57904">
        <ele>161.16</ele>
        <time>2018-04-12T13:50:04Z</time>
      </trkpt>
      <trkpt lat="44.47224" lon="1.57919">
        <ele>159.24</ele>
        <time>2018-04-12T13:50:25Z</time>
      </trkpt>
      <trkpt lat="44.47205" lon="1.57935">
        <ele>157.79</ele>
        <time>2018-04-12T13:50:44Z</time>
      </trkpt>
      <trkpt lat="44.4719" lon="1.57951">
        <ele>155.87</ele>
        <time>2018-04-12T13:51:03Z</time>
      </trkpt>
      <trkpt lat="44.47175" lon="1.57971">
        <ele>154.91</ele>
        <time>2018-04-12T13:51:23Z</time>
      </trkpt>
      <trkpt lat="44.47159" lon="1.57991">
        <ele>152.99</ele>
        <time>2018-04-12T13:51:41Z</time>
      </trkpt>
      <trkpt lat="44.47141" lon="1.5801">
        <ele>151.06</ele>
        <time>2018-04-12T13:52:01Z</time>
      </trkpt>
      <trkpt lat="44.47124" lon="1.58031">
        <ele>149.14</ele>
        <time>2018-04-12T13:52:21Z</time>
      </trkpt>
      <trkpt lat="44.47109" lon="1.58052">
        <ele>147.22</ele>
        <time>2018-04-12T13:52:39Z</time>
      </trkpt>
      <trkpt lat="44.47096" lon="1.58076">
        <ele>146.26</ele>
        <time>2018-04-12T13:52:57Z</time>
      </trkpt>
      <trkpt lat="44.47081" lon="1.58094">
        <ele>144.34</ele>
        <time>2018-04-12T13:53:16Z</time>
      </trkpt>
      <trkpt lat="44.47061" lon="1.58106">
        <ele>142.41</ele>
        <time>2018-04-12T13:53:35Z</time>
      </trkpt>
      <trkpt lat="44.47043" lon="1.58123">
        <ele>140.97</ele>
        <time>2018-04-12T13:53:54Z</time>
      </trkpt>
      <trkpt lat="44.47027" lon="1.58139">
        <ele>139.05</ele>
        <time>2018-04-12T13:54:12Z</time>
      </trkpt>
      <trkpt lat="44.47011" lon="1.58159">
        <ele>137.13</ele>
        <time>2018-04-12T13:54:32Z</time>
      </trkpt>
      <trkpt lat="44.46995" lon="1.58183">
        <ele>135.2</ele>
        <time>2018-04-12T13:54:53Z</time>
      </trkpt>
      <trkpt lat="44.4698" lon="1.58207">
        <ele>134.24</ele>
        <time>2018-04-12T13:55:13Z</time>
      </trkpt>
      <trkpt lat="44.46965" lon="1.58227">
        <ele>134.24</ele>
        <time>2018-04-12T13:55:37Z</time>
      </trkpt>
      <trkpt lat="44.46947" lon="1.58236">
        <ele>134.24</ele>
        <time>2018-04-12T13:55:55Z</time>
      </trkpt>
      <trkpt lat="44.46928" lon="1.58244">
        <ele>133.76</ele>
        <time>2018-04-12T13:56:12Z</time>
      </trkpt>
      <trkpt lat="44.4691" lon="1.58259">
        <ele>135.2</ele>
        <time>2018-04-12T13:56:29Z</time>
      </trkpt>
      <trkpt lat="44.46894" lon="1.58274">
        <ele>135.2</ele>
        <time>2018-04-12T13:56:45Z</time>
      </trkpt>
      <trkpt lat="44.46877" lon="1.58287">
        <ele>135.2</ele>
        <time>2018-04-12T13:57:01Z</time>
      </trkpt>
      <trkpt lat="44.46861" lon="1.58304">
        <ele>135.2</ele>
        <time>2018-04-12T13:57:17Z</time>
      </trkpt>
      <trkpt lat="44.46846" lon="1.58322">
        <ele>135.2</ele>
        <time>2018-04-12T13:57:34Z</time>
      </trkpt>
      <trkpt lat="44.46833" lon="1.58342">
        <ele>135.2</ele>
        <time>2018-04-12T13:57:50Z</time>
      </trkpt>
      <trkpt lat="44.46823" lon="1.58364">
        <ele>135.2</ele>
        <time>2018-04-12T13:58:06Z</time>
      </trkpt>
      <trkpt lat="44.46812" lon="1.58386">
        <ele>135.2</ele>
        <time>2018-04-12T13:58:23Z</time>
      </trkpt>
      <trkpt lat="44.46813" lon="1.58408">
        <ele>137.13</ele>
        <time>2018-04-12T13:58:41Z</time>
      </trkpt>
      <trkpt lat="44.46828" lon="1.58424">
        <ele>137.61</ele>
        <time>2018-04-12T13:58:58Z</time>
      </trkpt>
      <trkpt lat="44.46843" lon="1.58445">
        <ele>138.09</ele>
        <time>2018-04-12T13:59:15Z</time>
      </trkpt>
      <trkpt lat="44.46855" lon="1.58465">
        <ele>138.57</ele>
        <time>2018-04-12T13:59:32Z</time>
      </trkpt>
      <trkpt lat="44.46868" lon="1.58486">
        <ele>138.57</ele>
        <time>2018-04-12T13:59:49Z</time>
      </trkpt>
      <trkpt lat="44.46879" lon="1.58506">
        <ele>139.53</ele>
        <time>2018-04-12T14:00:06Z</time>
      </trkpt>
      <trkpt lat="44.46892" lon="1.58527">
        <ele>139.05</ele>
        <time>2018-04-12T14:00:22Z</time>
      </trkpt>
      <trkpt lat="44.46905" lon="1.58548">
        <ele>139.05</ele>
        <time>2018-04-12T14:00:38Z</time>
      </trkpt>
      <trkpt lat="44.46919" lon="1.58569">
        <ele>139.05</ele>
        <time>2018-04-12T14:00:54Z</time>
      </trkpt>
      <trkpt lat="44.46933" lon="1.58588">
        <ele>137.61</ele>
        <time>2018-04-12T14:01:11Z</time>
      </trkpt>
      <trkpt lat="44.46944" lon="1.5861">
        <ele>137.13</ele>
        <time>2018-04-12T14:01:29Z</time>
      </trkpt>
      <trkpt lat="44.46957" lon="1.58629">
        <ele>136.16</ele>
        <time>2018-04-12T14:01:45Z</time>
      </trkpt>
      <trkpt lat="44.4697" lon="1.58651">
        <ele>135.68</ele>
        <time>2018-04-12T14:02:02Z</time>
      </trkpt>
      <trkpt lat="44.46981" lon="1.58668">
        <ele>135.2</ele>
        <time>2018-04-12T14:02:27Z</time>
      </trkpt>
      <trkpt lat="44.46989" lon="1.58687">
        <ele>134.72</ele>
        <time>2018-04-12T14:02:53Z</time>
      </trkpt>
      <trkpt lat="44.47004" lon="1.58703">
        <ele>134.24</ele>
        <time>2018-04-12T14:03:12Z</time>
      </trkpt>
      <trkpt lat="44.47019" lon="1.58692">
        <ele>133.76</ele>
        <time>2018-04-12T14:03:32Z</time>
      </trkpt>
      <trkpt lat="44.47031" lon="1.58672">
        <ele>133.28</ele>
        <time>2018-04-12T14:03:48Z</time>
      </trkpt>
      <trkpt lat="44.47044" lon="1.58651">
        <ele>133.28</ele>
        <time>2018-04-12T14:04:05Z</time>
      </trkpt>
      <trkpt lat="44.47058" lon="1.58632">
        <ele>133.28</ele>
        <time>2018-04-12T14:04:23Z</time>
      </trkpt>
      <trkpt lat="44.4707" lon="1.58611">
        <ele>133.28</ele>
        <time>2018-04-12T14:04:39Z</time>
      </trkpt>
      <trkpt lat="44.47081" lon="1.58589">
        <ele>132.8</ele>
        <time>2018-04-12T14:04:56Z</time>
      </trkpt>
      <trkpt lat="44.47091" lon="1.58568">
        <ele>132.8</ele>
        <time>2018-04-12T14:05:12Z</time>
      </trkpt>
      <trkpt lat="44.47102" lon="1.58547">
        <ele>132.32</ele>
        <time>2018-04-12T14:05:27Z</time>
      </trkpt>
      <trkpt lat="44.47115" lon="1.58525">
        <ele>132.32</ele>
        <time>2018-04-12T14:05:42Z</time>
      </trkpt>
      <trkpt lat="44.47127" lon="1.58503">
        <ele>132.32</ele>
        <time>2018-04-12T14:05:58Z</time>
      </trkpt>
      <trkpt lat="44.47138" lon="1.58482">
        <ele>132.32</ele>
        <time>2018-04-12T14:06:13Z</time>
      </trkpt>
      <trkpt lat="44.47151" lon="1.58462">
        <ele>131.84</ele>
        <time>2018-04-12T14:06:28Z</time>
      </trkpt>
      <trkpt lat="44.47165" lon="1.58444">
        <ele>131.84</ele>
        <time>2018-04-12T14:06:44Z</time>
      </trkpt>
      <trkpt lat="44.47182" lon="1.58426">
        <ele>131.84</ele>
        <time>2018-04-12T14:07:00Z</time>
      </trkpt>
      <trkpt lat="44.47197" lon="1.58414">
        <ele>131.84</ele>
        <time>2018-04-12T14:07:14Z</time>
      </trkpt>
      <trkpt lat="44.47212" lon="1.584">
        <ele>131.84</ele>
        <time>2018-04-12T14:07:28Z</time>
      </trkpt>
      <trkpt lat="44.47226" lon="1.58385">
        <ele>131.84</ele>
        <time>2018-04-12T14:07:42Z</time>
      </trkpt>
      <trkpt lat="44.47242" lon="1.58372">
        <ele>131.36</ele>
        <time>2018-04-12T14:07:56Z</time>
      </trkpt>
      <trkpt lat="44.47256" lon="1.58356">
        <ele>131.36</ele>
        <time>2018-04-12T14:08:10Z</time>
      </trkpt>
      <trkpt lat="44.4727" lon="1.58342">
        <ele>131.36</ele>
        <time>2018-04-12T14:08:24Z</time>
      </trkpt>
      <trkpt lat="44.47287" lon="1.58329">
        <ele>131.36</ele>
        <time>2018-04-12T14:08:38Z</time>
      </trkpt>
      <trkpt lat="44.47304" lon="1.58322">
        <ele>130.88</ele>
        <time>2018-04-12T14:08:52Z</time>
      </trkpt>
      <trkpt lat="44.47323" lon="1.58315">
        <ele>130.88</ele>
        <time>2018-04-12T14:09:09Z</time>
      </trkpt>
      <trkpt lat="44.47342" lon="1.5831">
        <ele>130.88</ele>
        <time>2018-04-12T14:09:24Z</time>
      </trkpt>
      <trkpt lat="44.47359" lon="1.58302">
        <ele>130.88</ele>
        <time>2018-04-12T14:09:37Z</time>
      </trkpt>
      <trkpt lat="44.47376" lon="1.58293">
        <ele>130.88</ele>
        <time>2018-04-12T14:09:51Z</time>
      </trkpt>
      <trkpt lat="44.47393" lon="1.58281">
        <ele>130.88</ele>
        <time>2018-04-12T14:10:06Z</time>
      </trkpt>
      <trkpt lat="44.47408" lon="1.58267">
        <ele>130.4</ele>
        <time>2018-04-12T14:10:21Z</time>
      </trkpt>
      <trkpt lat="44.47426" lon="1.58255">
        <ele>130.4</ele>
        <time>2018-04-12T14:10:36Z</time>
      </trkpt>
      <trkpt lat="44.47445" lon="1.58245">
        <ele>129.92</ele>
        <time>2018-04-12T14:10:52Z</time>
      </trkpt>
      <trkpt lat="44.47464" lon="1.58235">
        <ele>129.92</ele>
        <time>2018-04-12T14:11:08Z</time>
      </trkpt>
      <trkpt lat="44.47483" lon="1.58222">
        <ele>129.92</ele>
        <time>2018-04-12T14:11:25Z</time>
      </trkpt>
      <trkpt lat="44.47503" lon="1.58209">
        <ele>129.92</ele>
        <time>2018-04-12T14:11:42Z</time>
      </trkpt>
      <trkpt lat="44.47521" lon="1.58197">
        <ele>129.92</ele>
        <time>2018-04-12T14:11:58Z</time>
      </trkpt>
      <trkpt lat="44.47539" lon="1.58185">
        <ele>129.92</ele>
        <time>2018-04-12T14:12:14Z</time>
      </trkpt>
      <trkpt lat="44.47557" lon="1.58173">
        <ele>129.92</ele>
        <time>2018-04-12T14:12:30Z</time>
      </trkpt>
      <trkpt lat="44.47574" lon="1.58158">
        <ele>129.92</ele>
        <time>2018-04-12T14:12:47Z</time>
      </trkpt>
      <trkpt lat="44.47593" lon="1.58144">
        <ele>129.92</ele>
        <time>2018-04-12T14:13:05Z</time>
      </trkpt>
      <trkpt lat="44.47609" lon="1.58124">
        <ele>129.92</ele>
        <time>2018-04-12T14:13:22Z</time>
      </trkpt>
      <trkpt lat="44.47623" lon="1.58105">
        <ele>129.92</ele>
        <time>2018-04-12T14:13:38Z</time>
      </trkpt>
      <trkpt lat="44.47637" lon="1.58087">
        <ele>129.43</ele>
        <time>2018-04-12T14:13:54Z</time>
      </trkpt>
      <trkpt lat="44.47652" lon="1.58068">
        <ele>129.43</ele>
        <time>2018-04-12T14:14:11Z</time>
      </trkpt>
      <trkpt lat="44.47666" lon="1.5805">
        <ele>129.43</ele>
        <time>2018-04-12T14:14:26Z</time>
      </trkpt>
      <trkpt lat="44.47682" lon="1.58032">
        <ele>129.43</ele>
        <time>2018-04-12T14:14:42Z</time>
      </trkpt>
      <trkpt lat="44.47695" lon="1.58013">
        <ele>129.43</ele>
        <time>2018-04-12T14:14:58Z</time>
      </trkpt>
      <trkpt lat="44.47704" lon="1.57988">
        <ele>129.43</ele>
        <time>2018-04-12T14:15:15Z</time>
      </trkpt>
      <trkpt lat="44.47708" lon="1.57961">
        <ele>129.43</ele>
        <time>2018-04-12T14:15:31Z</time>
      </trkpt>
      <trkpt lat="44.47713" lon="1.57934">
        <ele>129.43</ele>
        <time>2018-04-12T14:15:48Z</time>
      </trkpt>
      <trkpt lat="44.47719" lon="1.57906">
        <ele>128.95</ele>
        <time>2018-04-12T14:16:05Z</time>
      </trkpt>
      <trkpt lat="44.47728" lon="1.57882">
        <ele>128.47</ele>
        <time>2018-04-12T14:16:23Z</time>
      </trkpt>
      <trkpt lat="44.47748" lon="1.5788">
        <ele>128.47</ele>
        <time>2018-04-12T14:16:40Z</time>
      </trkpt>
      <trkpt lat="44.47768" lon="1.5789">
        <ele>128.47</ele>
        <time>2018-04-12T14:16:56Z</time>
      </trkpt>
      <trkpt lat="44.47775" lon="1.57911">
        <ele>128.47</ele>
        <time>2018-04-12T14:17:14Z</time>
      </trkpt>
      <trkpt lat="44.47763" lon="1.57935">
        <ele>129.43</ele>
        <time>2018-04-12T14:17:30Z</time>
      </trkpt>
      <trkpt lat="44.47754" lon="1.57957">
        <ele>129.43</ele>
        <time>2018-04-12T14:17:46Z</time>
      </trkpt>
      <trkpt lat="44.47751" lon="1.57985">
        <ele>130.88</ele>
        <time>2018-04-12T14:18:03Z</time>
      </trkpt>
      <trkpt lat="44.47763" lon="1.58006">
        <ele>130.4</ele>
        <time>2018-04-12T14:18:21Z</time>
      </trkpt>
      <trkpt lat="44.47775" lon="1.58028">
        <ele>130.4</ele>
        <time>2018-04-12T14:18:38Z</time>
      </trkpt>
      <trkpt lat="44.47786" lon="1.58053">
        <ele>130.4</ele>
        <time>2018-04-12T14:18:56Z</time>
      </trkpt>
      <trkpt lat="44.47789" lon="1.5808">
        <ele>131.36</ele>
        <time>2018-04-12T14:19:14Z</time>
      </trkpt>
      <trkpt lat="44.47807" lon="1.58088">
        <ele>131.84</ele>
        <time>2018-04-12T14:19:31Z</time>
      </trkpt>
      <trkpt lat="44.47822" lon="1.58103">
        <ele>130.4</ele>
        <time>2018-04-12T14:19:52Z</time>
      </trkpt>
      <trkpt lat="44.47815" lon="1.58127">
        <ele>128.95</ele>
        <time>2018-04-12T14:20:18Z</time>
      </trkpt>
      <trkpt lat="44.47807" lon="1.58149">
        <ele>128.95</ele>
        <time>2018-04-12T14:20:47Z</time>
      </trkpt>
      <trkpt lat="44.47816" lon="1.58166">
        <ele>128.95</ele>
        <time>2018-04-12T14:21:18Z</time>
      </trkpt>
      <trkpt lat="44.47832" lon="1.58178">
        <ele>127.51</ele>
        <time>2018-04-12T14:22:48Z</time>
      </trkpt>
    </trkseg>
  </trk>
</gpx>